Time,TemperatureF,DewpointF,PressureIn,WindDirection,WindDirectionDegrees,WindSpeedMPH,WindSpeedGustMPH,Humidity,HourlyPrecipIn,Conditions,Clouds,dailyrainin,SoftwareType,DateUTC
2013-03-29 00:00:00,42.6,3.2,30.22,NNW,338,0.0,0.0,19,0.00,,---,0.00,VWS V14.01,2013-03-29 04:00:00,
2013-03-29 00:05:00,42.2,2.9,30.22,NNW,338,0.0,0.0,19,0.00,,---,0.00,VWS V14.01,2013-03-29 04:05:00,
2013-03-29 00:06:00,42.2,2.9,30.22,NNW,338,0.0,0.0,19,0.00,,---,0.00,VWS V14.01,2013-03-29 04:06:00,
2013-03-29 00:10:00,42.2,2.9,30.22,NNW,338,0.0,0.0,19,0.00,,---,0.00,VWS V14.01,2013-03-29 04:10:00,
2013-03-29 00:11:00,42.2,2.9,30.22,NNW,338,0.0,0.0,19,0.00,,---,0.00,VWS V14.01,2013-03-29 04:11:00,
2013-03-29 00:15:00,42.2,2.9,30.22,NNW,338,0.0,0.0,19,0.00,,---,0.00,VWS V14.01,2013-03-29 04:15:00,
2013-03-29 00:16:00,42.2,2.9,30.22,NNW,338,0.0,0.0,19,0.00,,---,0.00,VWS V14.01,2013-03-29 04:16:00,
2013-03-29 00:17:00,42.2,2.9,30.22,NNW,338,0.0,0.0,19,0.00,,---,0.00,VWS V14.01,2013-03-29 04:17:00,
2013-03-29 00:20:00,42.2,2.9,30.22,NNW,338,0.0,0.0,19,0.00,,---,0.00,VWS V14.01,2013-03-29 04:20:00,
2013-03-29 00:21:00,42.0,2.7,30.22,NNW,338,0.0,0.0,19,0.00,,---,0.00,VWS V14.01,2013-03-29 04:21:00,
2013-03-29 00:22:00,42.0,2.7,30.22,NNW,338,0.0,0.0,19,0.00,,---,0.00,VWS V14.01,2013-03-29 04:22:00,
2013-03-29 00:23:00,42.0,2.7,30.22,NNW,338,0.0,0.0,19,0.00,,---,0.00,VWS V14.01,2013-03-29 04:23:00,
2013-03-29 00:25:00,42.0,2.7,30.22,NNW,338,0.0,0.0,19,0.00,,---,0.00,VWS V14.01,2013-03-29 04:25:00,
2013-03-29 00:27:00,42.0,2.7,30.22,NNW,338,0.0,0.0,19,0.00,,---,0.00,VWS V14.01,2013-03-29 04:27:00,
2013-03-29 00:28:00,42.0,2.7,30.22,NNW,338,0.0,0.0,19,0.00,,---,0.00,VWS V14.01,2013-03-29 04:28:00,
2013-03-29 00:30:00,42.0,2.7,30.22,NNW,338,0.0,0.0,19,0.00,,---,0.00,VWS V14.01,2013-03-29 04:30:00,
2013-03-29 00:32:00,42.0,2.7,30.22,NNW,338,0.0,0.0,19,0.00,,---,0.00,VWS V14.01,2013-03-29 04:32:00,
2013-03-29 00:33:00,41.8,2.6,30.21,NNW,338,0.0,0.0,19,0.00,,---,0.00,VWS V14.01,2013-03-29 04:33:00,
2013-03-29 00:34:00,41.8,2.6,30.21,NNW,338,0.0,0.0,19,0.00,,---,0.00,VWS V14.01,2013-03-29 04:34:00,
2013-03-29 00:35:00,41.7,2.5,30.21,NNW,338,0.0,0.0,19,0.00,,---,0.00,VWS V14.01,2013-03-29 04:35:00,
2013-03-29 00:38:00,41.7,2.5,30.22,NNW,338,0.0,0.0,19,0.00,,---,0.00,VWS V14.01,2013-03-29 04:38:00,
2013-03-29 00:39:00,41.7,2.5,30.21,NNW,338,0.0,0.0,19,0.00,,---,0.00,VWS V14.01,2013-03-29 04:39:00,
2013-03-29 00:41:00,41.7,2.5,30.22,NNW,338,0.0,0.0,19,0.00,,---,0.00,VWS V14.01,2013-03-29 04:41:00,
2013-03-29 00:43:00,41.7,2.5,30.21,NNW,338,0.0,0.0,19,0.00,,---,0.00,VWS V14.01,2013-03-29 04:43:00,
2013-03-29 00:44:00,41.7,2.5,30.22,NNW,338,0.0,0.0,19,0.00,,---,0.00,VWS V14.01,2013-03-29 04:44:00,
2013-03-29 00:47:00,41.7,2.5,30.22,NNW,338,0.0,0.0,19,0.00,,---,0.00,VWS V14.01,2013-03-29 04:47:00,
2013-03-29 00:48:00,41.7,2.5,30.22,NNW,338,0.0,0.0,19,0.00,,---,0.00,VWS V14.01,2013-03-29 04:48:00,
2013-03-29 00:49:00,41.7,2.5,30.22,NNW,338,0.0,0.0,19,0.00,,---,0.00,VWS V14.01,2013-03-29 04:49:00,
2013-03-29 00:52:00,41.3,2.2,30.22,NNW,338,0.0,0.0,19,0.00,,---,0.00,VWS V14.01,2013-03-29 04:52:00,
2013-03-29 00:53:00,41.3,2.2,30.22,NNW,338,0.0,0.0,19,0.00,,---,0.00,VWS V14.01,2013-03-29 04:53:00,
2013-03-29 00:55:00,41.3,2.2,30.22,NNW,338,0.0,0.0,19,0.00,,---,0.00,VWS V14.01,2013-03-29 04:55:00,
2013-03-29 00:58:00,41.1,5.2,30.22,NNW,338,0.0,0.0,22,0.00,,---,0.00,VWS V14.01,2013-03-29 04:58:00,
2013-03-29 00:59:00,41.1,5.2,30.22,NNW,338,0.0,0.0,22,0.00,,---,0.00,VWS V14.01,2013-03-29 04:59:00,
2013-03-29 01:00:00,40.9,1.8,30.22,NNW,338,0.0,0.0,19,0.00,,---,0.00,VWS V14.01,2013-03-29 05:00:00,
2013-03-29 01:03:00,40.9,1.8,30.22,NNW,338,0.0,0.0,19,0.00,,---,0.00,VWS V14.01,2013-03-29 05:03:00,
2013-03-29 01:04:00,40.9,1.8,30.22,NNW,338,0.0,0.0,19,0.00,,---,0.00,VWS V14.01,2013-03-29 05:04:00,
2013-03-29 01:05:00,40.9,1.8,30.22,NNW,338,0.0,0.0,19,0.00,,---,0.00,VWS V14.01,2013-03-29 05:05:00,
2013-03-29 01:08:00,40.9,1.8,30.22,NNW,338,0.0,0.0,19,0.00,,---,0.00,VWS V14.01,2013-03-29 05:08:00,
2013-03-29 01:09:00,40.9,1.8,30.22,NNW,338,0.0,0.0,19,0.00,,---,0.00,VWS V14.01,2013-03-29 05:09:00,
2013-03-29 01:10:00,40.9,1.8,30.22,NNW,338,0.0,0.0,19,0.00,,---,0.00,VWS V14.01,2013-03-29 05:10:00,
2013-03-29 01:13:00,40.9,1.8,30.22,NNW,338,0.0,0.0,19,0.00,,---,0.00,VWS V14.01,2013-03-29 05:13:00,
2013-03-29 01:14:00,40.9,1.8,30.22,NNW,338,0.0,0.0,19,0.00,,---,0.00,VWS V14.01,2013-03-29 05:14:00,
2013-03-29 01:15:00,40.9,1.8,30.22,NNW,338,0.0,0.0,19,0.00,,---,0.00,VWS V14.01,2013-03-29 05:15:00,
2013-03-29 01:18:00,40.8,1.8,30.22,NNW,338,0.0,0.0,19,0.00,,---,0.00,VWS V14.01,2013-03-29 05:18:00,
2013-03-29 01:20:00,40.8,1.8,30.22,NNW,338,0.0,0.0,19,0.00,,---,0.00,VWS V14.01,2013-03-29 05:20:00,
2013-03-29 01:21:00,40.8,1.8,30.22,NNW,338,0.0,0.0,19,0.00,,---,0.00,VWS V14.01,2013-03-29 05:21:00,
2013-03-29 01:23:00,40.8,1.8,30.22,NNW,338,0.0,0.0,19,0.00,,---,0.00,VWS V14.01,2013-03-29 05:23:00,
2013-03-29 01:25:00,40.8,1.8,30.22,NNW,338,0.0,0.0,19,0.00,,---,0.00,VWS V14.01,2013-03-29 05:25:00,
2013-03-29 01:26:00,40.8,1.8,30.22,NNW,338,0.0,0.0,19,0.00,,---,0.00,VWS V14.01,2013-03-29 05:26:00,
2013-03-29 01:28:00,40.9,1.8,30.22,NNW,338,0.0,0.0,19,0.00,,---,0.00,VWS V14.01,2013-03-29 05:28:00,
2013-03-29 01:30:00,40.8,1.8,30.22,NNW,338,0.0,0.0,19,0.00,,---,0.00,VWS V14.01,2013-03-29 05:30:00,
2013-03-29 01:31:00,40.6,1.6,30.22,NNW,338,0.0,0.0,19,0.00,,---,0.00,VWS V14.01,2013-03-29 05:31:00,
2013-03-29 01:34:00,40.8,1.8,30.22,NNW,338,0.0,0.0,19,0.00,,---,0.00,VWS V14.01,2013-03-29 05:34:00,
2013-03-29 01:35:00,40.4,1.4,30.22,NNW,338,0.0,0.0,19,0.00,,---,0.00,VWS V14.01,2013-03-29 05:35:00,
2013-03-29 01:37:00,40.4,1.4,30.22,NNW,338,0.0,0.0,19,0.00,,---,0.00,VWS V14.01,2013-03-29 05:37:00,
2013-03-29 01:40:00,40.4,6.5,30.22,NNW,338,0.0,0.0,24,0.00,,---,0.00,VWS V14.01,2013-03-29 05:40:00,
2013-03-29 01:41:00,40.4,6.5,30.22,NNW,338,0.0,0.0,24,0.00,,---,0.00,VWS V14.01,2013-03-29 05:41:00,
2013-03-29 01:42:00,40.4,6.5,30.22,NNW,338,0.0,0.0,24,0.00,,---,0.00,VWS V14.01,2013-03-29 05:42:00,
2013-03-29 01:45:00,40.2,4.4,30.22,NNW,338,0.0,0.0,22,0.00,,---,0.00,VWS V14.01,2013-03-29 05:45:00,
2013-03-29 01:46:00,40.2,4.4,30.22,NNW,338,0.0,0.0,22,0.00,,---,0.00,VWS V14.01,2013-03-29 05:46:00,
2013-03-29 01:47:00,40.4,5.5,30.22,NNW,338,0.0,0.0,23,0.00,,---,0.00,VWS V14.01,2013-03-29 05:47:00,
2013-03-29 01:50:00,40.4,6.5,30.22,NNW,338,0.0,0.0,24,0.00,,---,0.00,VWS V14.01,2013-03-29 05:50:00,
2013-03-29 01:51:00,40.4,6.5,30.22,NNW,338,0.0,0.0,24,0.00,,---,0.00,VWS V14.01,2013-03-29 05:51:00,
2013-03-29 01:52:00,40.2,1.2,30.22,NNW,338,0.0,0.0,19,0.00,,---,0.00,VWS V14.01,2013-03-29 05:52:00,
2013-03-29 01:55:00,40.4,4.6,30.22,NNW,338,0.0,0.0,22,0.00,,---,0.00,VWS V14.01,2013-03-29 05:55:00,
2013-03-29 01:56:00,40.4,4.6,30.22,NNW,338,0.0,0.0,22,0.00,,---,0.00,VWS V14.01,2013-03-29 05:56:00,
2013-03-29 01:57:00,40.4,7.4,30.22,NNW,338,0.0,0.0,25,0.00,,---,0.00,VWS V14.01,2013-03-29 05:57:00,
2013-03-29 01:58:00,40.4,7.4,30.22,NNW,338,0.0,0.0,25,0.00,,---,0.00,VWS V14.01,2013-03-29 05:58:00,
2013-03-29 02:01:00,40.4,9.1,30.22,NNW,338,0.0,0.0,27,0.00,,---,0.00,VWS V14.01,2013-03-29 06:01:00,
2013-03-29 02:02:00,40.4,9.1,30.22,NNW,338,0.0,0.0,27,0.00,,---,0.00,VWS V14.01,2013-03-29 06:02:00,
2013-03-29 02:03:00,40.4,9.1,30.22,NNW,338,0.0,0.0,27,0.00,,---,0.00,VWS V14.01,2013-03-29 06:03:00,
2013-03-29 02:06:00,40.4,9.1,30.22,NNW,338,0.0,0.0,27,0.00,,---,0.00,VWS V14.01,2013-03-29 06:06:00,
2013-03-29 02:07:00,40.4,13.6,30.22,NNW,338,0.0,0.0,33,0.00,,---,0.00,VWS V14.01,2013-03-29 06:07:00,
2013-03-29 02:08:00,40.4,13.6,30.22,NNW,338,0.0,0.0,33,0.00,,---,0.00,VWS V14.01,2013-03-29 06:08:00,
2013-03-29 02:09:00,40.4,13.6,30.22,NNW,338,0.0,0.0,33,0.00,,---,0.00,VWS V14.01,2013-03-29 06:09:00,
2013-03-29 02:12:00,39.7,13.6,30.22,NNW,338,0.0,0.0,34,0.00,,---,0.00,VWS V14.01,2013-03-29 06:12:00,
2013-03-29 02:13:00,39.7,13.6,30.22,NNW,338,0.0,0.0,34,0.00,,---,0.00,VWS V14.01,2013-03-29 06:13:00,
2013-03-29 02:14:00,39.7,13.6,30.22,NNW,338,0.0,0.0,34,0.00,,---,0.00,VWS V14.01,2013-03-29 06:14:00,
2013-03-29 02:17:00,39.7,14.3,30.22,NNW,338,0.0,0.0,35,0.00,,---,0.00,VWS V14.01,2013-03-29 06:17:00,
2013-03-29 02:19:00,39.5,14.8,30.22,NNW,338,0.0,0.0,36,0.00,,---,0.00,VWS V14.01,2013-03-29 06:19:00,
2013-03-29 02:20:00,39.5,14.8,30.22,NNW,338,0.0,0.0,36,0.00,,---,0.00,VWS V14.01,2013-03-29 06:20:00,
2013-03-29 02:22:00,39.3,14.6,30.22,NNW,338,0.0,0.0,36,0.00,,---,0.00,VWS V14.01,2013-03-29 06:22:00,
2013-03-29 02:23:00,39.3,14.6,30.22,NNW,338,0.0,0.0,36,0.00,,---,0.00,VWS V14.01,2013-03-29 06:23:00,
2013-03-29 02:25:00,39.1,14.4,30.22,NNW,338,0.0,0.0,36,0.00,,---,0.00,VWS V14.01,2013-03-29 06:25:00,
2013-03-29 02:26:00,39.1,14.4,30.22,NNW,338,0.0,0.0,36,0.00,,---,0.00,VWS V14.01,2013-03-29 06:26:00,
2013-03-29 02:28:00,39.1,14.4,30.22,NNW,338,0.0,0.0,36,0.00,,---,0.00,VWS V14.01,2013-03-29 06:28:00,
2013-03-29 02:30:00,39.0,14.9,30.22,NNW,338,0.0,0.0,37,0.00,,---,0.00,VWS V14.01,2013-03-29 06:30:00,
2013-03-29 02:31:00,38.8,14.8,30.22,NNW,338,0.0,0.0,37,0.00,,---,0.00,VWS V14.01,2013-03-29 06:31:00,
2013-03-29 02:33:00,38.6,15.2,30.22,NNW,338,0.0,0.0,38,0.00,,---,0.00,VWS V14.01,2013-03-29 06:33:00,
2013-03-29 02:34:00,38.6,15.2,30.22,NNW,338,0.0,0.0,38,0.00,,---,0.00,VWS V14.01,2013-03-29 06:34:00,
2013-03-29 02:36:00,38.6,14.6,30.22,NNW,338,0.0,0.0,37,0.00,,---,0.00,VWS V14.01,2013-03-29 06:36:00,
2013-03-29 02:37:00,38.6,14.6,30.22,NNW,338,0.0,0.0,37,0.00,,---,0.00,VWS V14.01,2013-03-29 06:37:00,
2013-03-29 02:39:00,38.2,13.6,30.22,NNW,338,0.0,0.0,36,0.00,,---,0.00,VWS V14.01,2013-03-29 06:39:00,
2013-03-29 02:41:00,38.2,13.6,30.22,NNW,338,0.0,0.0,36,0.00,,---,0.00,VWS V14.01,2013-03-29 06:41:00,
2013-03-29 02:43:00,38.2,13.6,30.22,NNW,338,0.0,0.0,36,0.00,,---,0.00,VWS V14.01,2013-03-29 06:43:00,
2013-03-29 02:44:00,38.1,13.5,30.22,NNW,338,0.0,0.0,36,0.00,,---,0.00,VWS V14.01,2013-03-29 06:44:00,
2013-03-29 02:45:00,38.1,13.5,30.22,NNW,338,0.0,0.0,36,0.00,,---,0.00,VWS V14.01,2013-03-29 06:45:00,
2013-03-29 02:47:00,38.1,14.1,30.22,NNW,338,0.0,0.0,37,0.00,,---,0.00,VWS V14.01,2013-03-29 06:47:00,
2013-03-29 02:48:00,38.1,14.1,30.22,NNW,338,0.0,0.0,37,0.00,,---,0.00,VWS V14.01,2013-03-29 06:48:00,
2013-03-29 02:50:00,38.1,14.1,30.22,NNW,338,0.0,0.0,37,0.00,,---,0.00,VWS V14.01,2013-03-29 06:50:00,
2013-03-29 02:52:00,37.9,13.4,30.22,NNW,338,0.0,0.0,36,0.00,,---,0.00,VWS V14.01,2013-03-29 06:52:00,
2013-03-29 02:53:00,37.9,13.4,30.22,NNW,338,0.0,0.0,36,0.00,,---,0.00,VWS V14.01,2013-03-29 06:53:00,
2013-03-29 02:55:00,37.9,13.4,30.22,NNW,338,0.0,0.0,36,0.00,,---,0.00,VWS V14.01,2013-03-29 06:55:00,
2013-03-29 02:58:00,38.1,13.5,30.22,NNW,338,0.0,0.0,36,0.00,,---,0.00,VWS V14.01,2013-03-29 06:58:00,
2013-03-29 02:59:00,38.1,13.5,30.22,NNW,338,0.0,0.0,36,0.00,,---,0.00,VWS V14.01,2013-03-29 06:59:00,
2013-03-29 03:00:00,38.1,13.5,30.21,NNW,338,0.0,0.0,36,0.00,,---,0.00,VWS V14.01,2013-03-29 07:00:00,
2013-03-29 03:03:00,38.1,14.1,30.22,NNW,338,0.0,0.0,37,0.00,,---,0.00,VWS V14.01,2013-03-29 07:03:00,
2013-03-29 03:04:00,38.1,14.1,30.22,NNW,338,0.0,0.0,37,0.00,,---,0.00,VWS V14.01,2013-03-29 07:04:00,
2013-03-29 03:05:00,38.1,14.1,30.22,NNW,338,0.0,0.0,37,0.00,,---,0.00,VWS V14.01,2013-03-29 07:05:00,
2013-03-29 03:08:00,38.1,14.1,30.22,NNW,338,0.0,0.0,37,0.00,,---,0.00,VWS V14.01,2013-03-29 07:08:00,
2013-03-29 03:09:00,37.9,14.6,30.22,NNW,338,0.0,0.0,38,0.00,,---,0.00,VWS V14.01,2013-03-29 07:09:00,
2013-03-29 03:10:00,37.9,14.6,30.22,NNW,338,0.0,0.0,38,0.00,,---,0.00,VWS V14.01,2013-03-29 07:10:00,
2013-03-29 03:12:00,37.9,14.6,30.22,NNW,338,0.0,0.0,38,0.00,,---,0.00,VWS V14.01,2013-03-29 07:12:00,
2013-03-29 03:14:00,37.7,14.4,30.22,NNW,338,0.0,0.0,38,0.00,,---,0.00,VWS V14.01,2013-03-29 07:14:00,
2013-03-29 03:16:00,37.5,14.2,30.22,NNW,338,0.0,0.0,38,0.00,,---,0.00,VWS V14.01,2013-03-29 07:16:00,
2013-03-29 03:17:00,37.5,14.2,30.22,NNW,338,0.0,0.0,38,0.00,,---,0.00,VWS V14.01,2013-03-29 07:17:00,
2013-03-29 03:19:00,37.5,14.8,30.22,NNW,338,0.0,0.0,39,0.00,,---,0.00,VWS V14.01,2013-03-29 07:19:00,
2013-03-29 03:21:00,37.5,14.2,30.22,NNW,338,0.0,0.0,38,0.00,,---,0.00,VWS V14.01,2013-03-29 07:21:00,
2013-03-29 03:22:00,37.5,14.2,30.22,NNW,338,0.0,0.0,38,0.00,,---,0.00,VWS V14.01,2013-03-29 07:22:00,
2013-03-29 03:24:00,37.5,14.2,30.22,NNW,338,0.0,0.0,38,0.00,,---,0.00,VWS V14.01,2013-03-29 07:24:00,
2013-03-29 03:26:00,37.3,12.8,30.22,NNW,338,0.0,0.0,36,0.00,,---,0.00,VWS V14.01,2013-03-29 07:26:00,
2013-03-29 03:27:00,37.3,12.8,30.21,NNW,338,0.0,0.0,36,0.00,,---,0.00,VWS V14.01,2013-03-29 07:27:00,
2013-03-29 03:29:00,37.5,13.6,30.22,NNW,338,0.0,0.0,37,0.00,,---,0.00,VWS V14.01,2013-03-29 07:29:00,
2013-03-29 03:31:00,37.5,13.6,30.22,NNW,338,0.0,0.0,37,0.00,,---,0.00,VWS V14.01,2013-03-29 07:31:00,
2013-03-29 03:33:00,37.5,13.6,30.21,NNW,338,0.0,0.0,37,0.00,,---,0.00,VWS V14.01,2013-03-29 07:33:00,
2013-03-29 03:34:00,37.5,13.6,30.21,NNW,338,0.0,0.0,37,0.00,,---,0.00,VWS V14.01,2013-03-29 07:34:00,
2013-03-29 03:35:00,37.5,13.6,30.21,NNW,338,0.0,0.0,37,0.00,,---,0.00,VWS V14.01,2013-03-29 07:35:00,
2013-03-29 03:36:00,37.5,13.6,30.22,NNW,338,0.0,0.0,37,0.00,,---,0.00,VWS V14.01,2013-03-29 07:36:00,
2013-03-29 03:39:00,37.5,14.2,30.22,NNW,338,0.0,0.0,38,0.00,,---,0.00,VWS V14.01,2013-03-29 07:39:00,
2013-03-29 03:40:00,37.5,14.2,30.22,NNW,338,0.0,0.0,38,0.00,,---,0.00,VWS V14.01,2013-03-29 07:40:00,
2013-03-29 03:42:00,37.7,14.4,30.22,NNW,338,0.0,0.0,38,0.00,,---,0.00,VWS V14.01,2013-03-29 07:42:00,
2013-03-29 03:44:00,37.5,14.8,30.22,NNW,338,0.0,0.0,39,0.00,,---,0.00,VWS V14.01,2013-03-29 07:44:00,
2013-03-29 03:45:00,37.5,14.8,30.22,NNW,338,0.0,0.0,39,0.00,,---,0.00,VWS V14.01,2013-03-29 07:45:00,
2013-03-29 03:47:00,37.5,15.4,30.22,NNW,338,0.0,0.0,40,0.00,,---,0.00,VWS V14.01,2013-03-29 07:47:00,
2013-03-29 03:49:00,37.3,15.2,30.22,NNW,338,0.0,0.0,40,0.00,,---,0.00,VWS V14.01,2013-03-29 07:49:00,
2013-03-29 03:50:00,37.3,15.2,30.22,NNW,338,0.0,0.0,40,0.00,,---,0.00,VWS V14.01,2013-03-29 07:50:00,
2013-03-29 03:52:00,37.3,15.2,30.22,NNW,338,0.0,0.0,40,0.00,,---,0.00,VWS V14.01,2013-03-29 07:52:00,
2013-03-29 03:55:00,37.3,15.2,30.22,NNW,338,0.0,0.0,40,0.00,,---,0.00,VWS V14.01,2013-03-29 07:55:00,
2013-03-29 03:57:00,37.3,15.2,30.22,NNW,338,0.0,0.0,40,0.00,,---,0.00,VWS V14.01,2013-03-29 07:57:00,
2013-03-29 04:00:00,37.2,15.7,30.22,NNW,338,0.0,0.0,41,0.00,,---,0.00,VWS V14.01,2013-03-29 08:00:00,
2013-03-29 04:01:00,37.2,15.7,30.22,NNW,338,0.0,0.0,41,0.00,,---,0.00,VWS V14.01,2013-03-29 08:01:00,
2013-03-29 04:03:00,37.0,15.5,30.22,NNW,338,0.0,0.0,41,0.00,,---,0.00,VWS V14.01,2013-03-29 08:03:00,
2013-03-29 04:05:00,36.8,15.3,30.22,NNW,338,0.0,0.0,41,0.00,,---,0.00,VWS V14.01,2013-03-29 08:05:00,
2013-03-29 04:06:00,36.8,15.3,30.22,NNW,338,0.0,0.0,41,0.00,,---,0.00,VWS V14.01,2013-03-29 08:06:00,
2013-03-29 04:08:00,36.8,15.9,30.22,NNW,338,0.0,0.0,42,0.00,,---,0.00,VWS V14.01,2013-03-29 08:08:00,
2013-03-29 04:10:00,36.6,15.1,30.22,NNW,338,0.0,0.0,41,0.00,,---,0.00,VWS V14.01,2013-03-29 08:10:00,
2013-03-29 04:11:00,36.6,15.7,30.21,NNW,338,0.0,0.0,42,0.00,,---,0.00,VWS V14.01,2013-03-29 08:11:00,
2013-03-29 04:13:00,36.4,15.5,30.22,NNW,338,0.0,0.0,42,0.00,,---,0.00,VWS V14.01,2013-03-29 08:13:00,
2013-03-29 04:15:00,36.1,14.7,30.22,NNW,338,0.0,0.0,41,0.00,,---,0.00,VWS V14.01,2013-03-29 08:15:00,
2013-03-29 04:16:00,36.1,14.7,30.21,NNW,338,0.0,0.0,41,0.00,,---,0.00,VWS V14.01,2013-03-29 08:16:00,
2013-03-29 04:17:00,36.1,14.7,30.21,NNW,338,0.0,0.0,41,0.00,,---,0.00,VWS V14.01,2013-03-29 08:17:00,
2013-03-29 04:18:00,36.1,15.2,30.22,NNW,338,0.0,0.0,42,0.00,,---,0.00,VWS V14.01,2013-03-29 08:18:00,
2013-03-29 04:20:00,36.1,15.2,30.22,NNW,338,0.0,0.0,42,0.00,,---,0.00,VWS V14.01,2013-03-29 08:20:00,
2013-03-29 04:21:00,36.1,15.2,30.22,NNW,338,0.0,0.0,42,0.00,,---,0.00,VWS V14.01,2013-03-29 08:21:00,
2013-03-29 04:22:00,36.1,15.2,30.22,NNW,338,0.0,0.0,42,0.00,,---,0.00,VWS V14.01,2013-03-29 08:22:00,
2013-03-29 04:23:00,36.1,15.2,30.22,NNW,338,0.0,0.0,42,0.00,,---,0.00,VWS V14.01,2013-03-29 08:23:00,
2013-03-29 04:25:00,35.9,15.6,30.22,NNW,338,0.0,0.0,43,0.00,,---,0.00,VWS V14.01,2013-03-29 08:25:00,
2013-03-29 04:26:00,35.7,14.9,30.22,NNW,338,0.0,0.0,42,0.00,,---,0.00,VWS V14.01,2013-03-29 08:26:00,
2013-03-29 04:28:00,35.7,14.9,30.22,NNW,338,0.0,0.0,42,0.00,,---,0.00,VWS V14.01,2013-03-29 08:28:00,
2013-03-29 04:31:00,35.5,15.2,30.22,NNW,338,0.0,0.0,43,0.00,,---,0.00,VWS V14.01,2013-03-29 08:31:00,
2013-03-29 04:32:00,35.5,15.2,30.22,NNW,338,0.0,0.0,43,0.00,,---,0.00,VWS V14.01,2013-03-29 08:32:00,
2013-03-29 04:33:00,35.4,15.1,30.22,NNW,338,0.0,0.0,43,0.00,,---,0.00,VWS V14.01,2013-03-29 08:33:00,
2013-03-29 04:36:00,35.0,14.2,30.22,NNW,338,0.0,0.0,42,0.00,,---,0.00,VWS V14.01,2013-03-29 08:36:00,
2013-03-29 04:37:00,35.0,14.8,30.22,NNW,338,0.0,0.0,43,0.00,,---,0.00,VWS V14.01,2013-03-29 08:37:00,
2013-03-29 04:38:00,35.0,14.8,30.22,NNW,338,0.0,0.0,43,0.00,,---,0.00,VWS V14.01,2013-03-29 08:38:00,
2013-03-29 04:39:00,35.0,14.8,30.22,NNW,338,0.0,0.0,43,0.00,,---,0.00,VWS V14.01,2013-03-29 08:39:00,
2013-03-29 04:42:00,35.0,15.3,30.21,NNW,338,0.0,0.0,44,0.00,,---,0.00,VWS V14.01,2013-03-29 08:42:00,
2013-03-29 04:44:00,35.0,15.3,30.21,NNW,338,0.0,0.0,44,0.00,,---,0.00,VWS V14.01,2013-03-29 08:44:00,
2013-03-29 04:45:00,35.0,15.8,30.21,NNW,338,0.0,0.0,45,0.00,,---,0.00,VWS V14.01,2013-03-29 08:45:00,
2013-03-29 04:47:00,35.0,15.8,30.21,NNW,338,0.0,0.0,45,0.00,,---,0.00,VWS V14.01,2013-03-29 08:47:00,
2013-03-29 04:49:00,35.0,15.3,30.21,NNW,338,0.0,0.0,44,0.00,,---,0.00,VWS V14.01,2013-03-29 08:49:00,
2013-03-29 04:50:00,35.0,15.3,30.21,NNW,338,0.0,0.0,44,0.00,,---,0.00,VWS V14.01,2013-03-29 08:50:00,
2013-03-29 04:53:00,35.0,15.3,30.21,NNW,338,0.0,0.0,44,0.00,,---,0.00,VWS V14.01,2013-03-29 08:53:00,
2013-03-29 04:55:00,35.0,15.3,30.21,NNW,338,0.0,0.0,44,0.00,,---,0.00,VWS V14.01,2013-03-29 08:55:00,
2013-03-29 04:56:00,35.0,15.3,30.21,NNW,338,0.0,0.0,44,0.00,,---,0.00,VWS V14.01,2013-03-29 08:56:00,
2013-03-29 04:58:00,35.0,15.3,30.21,NNW,338,0.0,0.0,44,0.00,,---,0.00,VWS V14.01,2013-03-29 08:58:00,
2013-03-29 05:00:00,35.2,16.0,30.21,NNW,338,0.0,0.0,45,0.00,,---,0.00,VWS V14.01,2013-03-29 09:00:00,
2013-03-29 05:01:00,35.2,16.0,30.21,NNW,338,0.0,0.0,45,0.00,,---,0.00,VWS V14.01,2013-03-29 09:01:00,
2013-03-29 05:03:00,35.5,16.3,30.21,NNW,338,0.0,0.0,45,0.00,,---,0.00,VWS V14.01,2013-03-29 09:03:00,
2013-03-29 05:05:00,35.5,16.3,30.21,NNW,338,0.0,0.0,45,0.00,,---,0.00,VWS V14.01,2013-03-29 09:05:00,
2013-03-29 05:08:00,35.5,16.3,30.21,NNW,338,0.0,0.0,45,0.00,,---,0.00,VWS V14.01,2013-03-29 09:08:00,
2013-03-29 05:10:00,35.5,16.3,30.21,NNW,338,0.0,0.0,45,0.00,,---,0.00,VWS V14.01,2013-03-29 09:10:00,
2013-03-29 05:13:00,35.7,16.5,30.21,NNW,338,0.0,0.0,45,0.00,,---,0.00,VWS V14.01,2013-03-29 09:13:00,
2013-03-29 05:14:00,35.7,16.5,30.21,NNW,338,0.0,0.0,45,0.00,,---,0.00,VWS V14.01,2013-03-29 09:14:00,
2013-03-29 05:17:00,35.5,16.3,30.21,NNW,338,0.0,0.0,45,0.00,,---,0.00,VWS V14.01,2013-03-29 09:17:00,
2013-03-29 05:18:00,35.5,16.3,30.21,NNW,338,0.0,0.0,45,0.00,,---,0.00,VWS V14.01,2013-03-29 09:18:00,
2013-03-29 05:19:00,35.5,16.3,30.21,NNW,338,0.0,0.0,45,0.00,,---,0.00,VWS V14.01,2013-03-29 09:19:00,
2013-03-29 05:23:00,35.9,16.6,30.21,NNW,338,0.0,0.0,45,0.00,,---,0.00,VWS V14.01,2013-03-29 09:23:00,
2013-03-29 05:24:00,36.1,16.8,30.21,NNW,338,0.0,0.0,45,0.00,,---,0.00,VWS V14.01,2013-03-29 09:24:00,
2013-03-29 05:28:00,36.1,16.8,30.21,NNW,338,0.0,0.0,45,0.00,,---,0.00,VWS V14.01,2013-03-29 09:28:00,
2013-03-29 05:29:00,36.1,16.8,30.21,NNW,338,0.0,0.0,45,0.00,,---,0.00,VWS V14.01,2013-03-29 09:29:00,
2013-03-29 05:30:00,36.1,16.8,30.21,NNW,338,0.0,0.0,45,0.00,,---,0.00,VWS V14.01,2013-03-29 09:30:00,
2013-03-29 05:33:00,36.3,16.5,30.21,NNW,338,0.0,0.0,44,0.00,,---,0.00,VWS V14.01,2013-03-29 09:33:00,
2013-03-29 05:34:00,36.3,16.5,30.21,NNW,338,0.0,0.0,44,0.00,,---,0.00,VWS V14.01,2013-03-29 09:34:00,
2013-03-29 05:36:00,36.3,16.5,30.21,NNW,338,0.0,0.0,44,0.00,,---,0.00,VWS V14.01,2013-03-29 09:36:00,
2013-03-29 05:38:00,36.4,16.0,30.21,NNW,338,0.0,0.0,43,0.00,,---,0.00,VWS V14.01,2013-03-29 09:38:00,
2013-03-29 05:39:00,36.4,16.0,30.21,NNW,338,0.0,0.0,43,0.00,,---,0.00,VWS V14.01,2013-03-29 09:39:00,
2013-03-29 05:40:00,36.4,16.0,30.21,NNW,338,0.0,0.0,43,0.00,,---,0.00,VWS V14.01,2013-03-29 09:40:00,
2013-03-29 05:41:00,36.6,16.8,30.21,NNW,338,0.0,0.0,44,0.00,,---,0.00,VWS V14.01,2013-03-29 09:41:00,
2013-03-29 05:43:00,36.6,16.8,30.21,NNW,338,0.0,0.0,44,0.00,,---,0.00,VWS V14.01,2013-03-29 09:43:00,
2013-03-29 05:44:00,36.6,16.8,30.21,NNW,338,0.0,0.0,44,0.00,,---,0.00,VWS V14.01,2013-03-29 09:44:00,
2013-03-29 05:45:00,36.6,17.3,30.21,NNW,338,0.0,0.0,45,0.00,,---,0.00,VWS V14.01,2013-03-29 09:45:00,
2013-03-29 05:47:00,36.4,17.1,30.21,NNW,338,0.0,0.0,45,0.00,,---,0.00,VWS V14.01,2013-03-29 09:47:00,
2013-03-29 05:49:00,36.4,17.1,30.21,NNW,338,0.0,0.0,45,0.00,,---,0.00,VWS V14.01,2013-03-29 09:49:00,
2013-03-29 05:50:00,36.4,17.1,30.21,NNW,338,0.0,0.0,45,0.00,,---,0.00,VWS V14.01,2013-03-29 09:50:00,
2013-03-29 05:52:00,36.4,17.1,30.21,NNW,338,0.0,0.0,45,0.00,,---,0.00,VWS V14.01,2013-03-29 09:52:00,
2013-03-29 05:54:00,36.6,17.3,30.21,NNW,338,0.0,0.0,45,0.00,,---,0.00,VWS V14.01,2013-03-29 09:54:00,
2013-03-29 05:55:00,36.6,17.3,30.21,NNW,338,0.0,0.0,45,0.00,,---,0.00,VWS V14.01,2013-03-29 09:55:00,
2013-03-29 05:56:00,36.6,17.3,30.21,NNW,338,0.0,0.0,45,0.00,,---,0.00,VWS V14.01,2013-03-29 09:56:00,
2013-03-29 05:58:00,36.4,17.1,30.21,NNW,338,0.0,0.0,45,0.00,,---,0.00,VWS V14.01,2013-03-29 09:58:00,
2013-03-29 05:59:00,36.4,17.1,30.21,NNW,338,0.0,0.0,45,0.00,,---,0.00,VWS V14.01,2013-03-29 09:59:00,
2013-03-29 06:00:00,36.4,17.1,30.21,NNW,338,0.0,0.0,45,0.00,,---,0.00,VWS V14.01,2013-03-29 10:00:00,
2013-03-29 06:01:00,36.4,17.1,30.21,NNW,338,0.0,0.0,45,0.00,,---,0.00,VWS V14.01,2013-03-29 10:01:00,
2013-03-29 06:04:00,36.4,17.1,30.21,NNW,338,0.0,0.0,45,0.00,,---,0.00,VWS V14.01,2013-03-29 10:04:00,
2013-03-29 06:06:00,36.4,17.6,30.21,NNW,338,0.0,0.0,46,0.00,,---,0.00,VWS V14.01,2013-03-29 10:06:00,
2013-03-29 06:07:00,36.4,17.6,30.21,NNW,338,0.0,0.0,46,0.00,,---,0.00,VWS V14.01,2013-03-29 10:07:00,
2013-03-29 06:09:00,36.4,17.6,30.21,NNW,338,0.0,0.0,46,0.00,,---,0.00,VWS V14.01,2013-03-29 10:09:00,
2013-03-29 06:10:00,36.4,17.6,30.21,NNW,338,0.0,0.0,46,0.00,,---,0.00,VWS V14.01,2013-03-29 10:10:00,
2013-03-29 06:11:00,36.4,18.1,30.21,NNW,338,0.0,0.0,47,0.00,,---,0.00,VWS V14.01,2013-03-29 10:11:00,
2013-03-29 06:12:00,36.4,18.1,30.21,NNW,338,0.0,0.0,47,0.00,,---,0.00,VWS V14.01,2013-03-29 10:12:00,
2013-03-29 06:14:00,36.4,18.1,30.21,NNW,338,0.0,0.0,47,0.00,,---,0.00,VWS V14.01,2013-03-29 10:14:00,
2013-03-29 06:15:00,36.4,18.1,30.21,NNW,338,0.0,0.0,47,0.00,,---,0.00,VWS V14.01,2013-03-29 10:15:00,
2013-03-29 06:16:00,36.3,18.0,30.21,NNW,338,0.0,0.0,47,0.00,,---,0.00,VWS V14.01,2013-03-29 10:16:00,
2013-03-29 06:17:00,36.6,18.3,30.20,NNW,338,0.0,0.0,47,0.00,,---,0.00,VWS V14.01,2013-03-29 10:17:00,
2013-03-29 06:19:00,36.3,18.0,30.20,NNW,338,0.0,0.0,47,0.00,,---,0.00,VWS V14.01,2013-03-29 10:19:00,
2013-03-29 06:21:00,36.3,18.0,30.20,NNW,338,0.0,0.0,47,0.00,,---,0.00,VWS V14.01,2013-03-29 10:21:00,
2013-03-29 06:22:00,36.3,18.0,30.20,NNW,338,0.0,0.0,47,0.00,,---,0.00,VWS V14.01,2013-03-29 10:22:00,
2013-03-29 06:25:00,36.3,18.0,30.20,NNW,338,0.0,0.0,47,0.00,,---,0.00,VWS V14.01,2013-03-29 10:25:00,
2013-03-29 06:26:00,36.3,18.0,30.20,NNW,338,0.0,0.0,47,0.00,,---,0.00,VWS V14.01,2013-03-29 10:26:00,
2013-03-29 06:27:00,36.1,17.8,30.20,NNW,338,0.0,0.0,47,0.00,,---,0.00,VWS V14.01,2013-03-29 10:27:00,
2013-03-29 06:32:00,35.9,17.6,30.20,NNW,338,0.0,0.0,47,0.00,,---,0.00,VWS V14.01,2013-03-29 10:32:00,
2013-03-29 06:33:00,35.7,18.0,30.20,NNW,338,0.0,0.0,48,0.00,,---,0.00,VWS V14.01,2013-03-29 10:33:00,
2013-03-29 06:37:00,35.7,18.0,30.20,NNW,338,0.0,0.0,48,0.00,,---,0.00,VWS V14.01,2013-03-29 10:37:00,
2013-03-29 06:38:00,35.5,17.8,30.20,NNW,338,0.0,0.0,48,0.00,,---,0.00,VWS V14.01,2013-03-29 10:38:00,
2013-03-29 06:43:00,35.7,18.4,30.20,NNW,338,0.0,0.0,49,0.00,,---,0.00,VWS V14.01,2013-03-29 10:43:00,
2013-03-29 06:48:00,35.5,18.2,30.20,NNW,338,0.0,0.0,49,0.00,,---,0.00,VWS V14.01,2013-03-29 10:48:00,
2013-03-29 06:49:00,35.5,18.2,30.21,NNW,338,0.0,0.0,49,0.00,,---,0.00,VWS V14.01,2013-03-29 10:49:00,
2013-03-29 06:53:00,35.5,18.7,30.21,NNW,338,0.0,0.0,50,0.00,,---,0.00,VWS V14.01,2013-03-29 10:53:00,
2013-03-29 06:54:00,35.5,18.7,30.21,NNW,338,0.0,0.0,50,0.00,,---,0.00,VWS V14.01,2013-03-29 10:54:00,
2013-03-29 06:58:00,35.5,18.7,30.21,NNW,338,0.0,0.0,50,0.00,,---,0.00,VWS V14.01,2013-03-29 10:58:00,
2013-03-29 06:59:00,35.5,18.7,30.21,NNW,338,0.0,0.0,50,0.00,,---,0.00,VWS V14.01,2013-03-29 10:59:00,
2013-03-29 07:03:00,35.5,18.7,30.21,NNW,338,0.0,0.0,50,0.00,,---,0.00,VWS V14.01,2013-03-29 11:03:00,
2013-03-29 07:04:00,35.5,18.7,30.21,NNW,338,0.0,0.0,50,0.00,,---,0.00,VWS V14.01,2013-03-29 11:04:00,
2013-03-29 07:08:00,35.5,18.7,30.22,NNW,338,0.0,0.0,50,0.00,,---,0.00,VWS V14.01,2013-03-29 11:08:00,
2013-03-29 07:09:00,35.5,18.7,30.22,NNW,338,0.0,0.0,50,0.00,,---,0.00,VWS V14.01,2013-03-29 11:09:00,
2013-03-29 07:13:00,35.5,18.7,30.21,NNW,338,0.0,0.0,50,0.00,,---,0.00,VWS V14.01,2013-03-29 11:13:00,
2013-03-29 07:14:00,35.5,18.2,30.21,NNW,338,0.0,0.0,49,0.00,,---,0.00,VWS V14.01,2013-03-29 11:14:00,
2013-03-29 07:15:00,35.5,18.2,30.21,NNW,338,0.0,0.0,49,0.00,,---,0.00,VWS V14.01,2013-03-29 11:15:00,
2013-03-29 07:19:00,35.7,18.4,30.21,NNW,338,0.0,0.0,49,0.00,,---,0.00,VWS V14.01,2013-03-29 11:19:00,
2013-03-29 07:20:00,35.5,18.2,30.20,NNW,338,0.0,0.0,49,0.00,,---,0.00,VWS V14.01,2013-03-29 11:20:00,
2013-03-29 07:24:00,35.5,18.2,30.21,NNW,338,0.0,0.0,49,0.00,,---,0.00,VWS V14.01,2013-03-29 11:24:00,
2013-03-29 07:25:00,35.5,18.2,30.21,NNW,338,0.0,0.0,49,0.00,,---,0.00,VWS V14.01,2013-03-29 11:25:00,
2013-03-29 07:29:00,35.7,18.9,30.21,NNW,338,0.0,0.0,50,0.00,,---,0.00,VWS V14.01,2013-03-29 11:29:00,
2013-03-29 07:30:00,35.7,18.9,30.21,NNW,338,0.0,0.0,50,0.00,,---,0.00,VWS V14.01,2013-03-29 11:30:00,
2013-03-29 07:35:00,35.7,18.9,30.22,NNW,338,0.0,0.0,50,0.00,,---,0.00,VWS V14.01,2013-03-29 11:35:00,
2013-03-29 07:36:00,35.7,18.9,30.22,NNW,338,0.0,0.0,50,0.00,,---,0.00,VWS V14.01,2013-03-29 11:36:00,
2013-03-29 07:40:00,35.7,19.4,30.22,NNW,338,0.0,0.0,51,0.00,,---,0.00,VWS V14.01,2013-03-29 11:40:00,
2013-03-29 07:41:00,35.7,19.4,30.22,NNW,338,0.0,0.0,51,0.00,,---,0.00,VWS V14.01,2013-03-29 11:41:00,
2013-03-29 07:45:00,35.7,18.9,30.22,NNW,338,0.0,0.0,50,0.00,,---,0.00,VWS V14.01,2013-03-29 11:45:00,
2013-03-29 07:46:00,35.7,18.9,30.22,NNW,338,0.0,0.0,50,0.00,,---,0.00,VWS V14.01,2013-03-29 11:46:00,
2013-03-29 07:47:00,35.9,19.1,30.22,NNW,338,0.0,0.0,50,0.00,,---,0.00,VWS V14.01,2013-03-29 11:47:00,
2013-03-29 07:50:00,35.9,19.1,30.22,NNW,338,0.0,0.0,50,0.00,,---,0.00,VWS V14.01,2013-03-29 11:50:00,
2013-03-29 07:51:00,36.1,19.3,30.22,NNW,338,0.0,0.0,50,0.00,,---,0.00,VWS V14.01,2013-03-29 11:51:00,
2013-03-29 07:53:00,36.1,19.3,30.22,NNW,338,0.0,0.0,50,0.00,,---,0.00,VWS V14.01,2013-03-29 11:53:00,
2013-03-29 07:55:00,36.3,19.0,30.22,NNW,338,0.0,0.0,49,0.00,,---,0.00,VWS V14.01,2013-03-29 11:55:00,
2013-03-29 07:56:00,36.3,19.0,30.22,NNW,338,0.0,0.0,49,0.00,,---,0.00,VWS V14.01,2013-03-29 11:56:00,
2013-03-29 07:57:00,36.3,19.0,30.22,NNW,338,0.0,0.0,49,0.00,,---,0.00,VWS V14.01,2013-03-29 11:57:00,
2013-03-29 07:58:00,36.1,18.8,30.22,NNW,338,0.0,0.0,49,0.00,,---,0.00,VWS V14.01,2013-03-29 11:58:00,
2013-03-29 08:01:00,36.3,19.0,30.22,NNW,338,0.0,0.0,49,0.00,,---,0.00,VWS V14.01,2013-03-29 12:01:00,
2013-03-29 08:02:00,36.3,19.0,30.22,NNW,338,0.0,0.0,49,0.00,,---,0.00,VWS V14.01,2013-03-29 12:02:00,
2013-03-29 08:03:00,36.3,19.0,30.22,NNW,338,0.0,0.0,49,0.00,,---,0.00,VWS V14.01,2013-03-29 12:03:00,
2013-03-29 08:06:00,36.3,19.0,30.22,NNW,338,0.0,0.0,49,0.00,,---,0.00,VWS V14.01,2013-03-29 12:06:00,
2013-03-29 08:07:00,36.3,19.0,30.22,NNW,338,0.0,0.0,49,0.00,,---,0.00,VWS V14.01,2013-03-29 12:07:00,
2013-03-29 08:08:00,36.3,19.0,30.22,NNW,338,0.0,0.0,49,0.00,,---,0.00,VWS V14.01,2013-03-29 12:08:00,
2013-03-29 08:12:00,36.6,19.7,30.22,NNW,338,0.0,0.0,50,0.00,,---,0.00,VWS V14.01,2013-03-29 12:12:00,
2013-03-29 08:13:00,36.6,19.7,30.22,NNW,338,0.0,0.0,50,0.00,,---,0.00,VWS V14.01,2013-03-29 12:13:00,
2013-03-29 08:18:00,36.8,20.4,30.23,NNW,338,0.0,0.0,51,0.00,,---,0.00,VWS V14.01,2013-03-29 12:18:00,
2013-03-29 08:23:00,37.0,20.6,30.23,NNW,338,0.0,0.0,51,0.00,,---,0.00,VWS V14.01,2013-03-29 12:23:00,
2013-03-29 08:24:00,37.2,20.8,30.23,NNW,338,0.0,0.0,51,0.00,,---,0.00,VWS V14.01,2013-03-29 12:24:00,
2013-03-29 08:28:00,37.2,20.8,30.22,NNW,338,0.0,0.0,51,0.00,,---,0.00,VWS V14.01,2013-03-29 12:28:00,
2013-03-29 08:29:00,37.3,20.9,30.22,NNW,338,0.0,0.0,51,0.00,,---,0.00,VWS V14.01,2013-03-29 12:29:00,
2013-03-29 08:33:00,37.5,21.5,30.23,NNW,338,0.0,0.0,52,0.00,,---,0.00,VWS V14.01,2013-03-29 12:33:00,
2013-03-29 08:35:00,37.5,21.5,30.23,NNW,338,0.0,0.0,52,0.00,,---,0.00,VWS V14.01,2013-03-29 12:35:00,
2013-03-29 08:38:00,37.9,21.9,30.23,NNW,338,0.0,0.0,52,0.00,,---,0.00,VWS V14.01,2013-03-29 12:38:00,
2013-03-29 08:39:00,37.9,21.9,30.23,NNW,338,0.0,0.0,52,0.00,,---,0.00,VWS V14.01,2013-03-29 12:39:00,
2013-03-29 08:40:00,37.9,21.9,30.23,NNW,338,0.0,0.0,52,0.00,,---,0.00,VWS V14.01,2013-03-29 12:40:00,
2013-03-29 08:44:00,38.2,21.7,30.22,NNW,338,0.0,0.0,51,0.00,,---,0.00,VWS V14.01,2013-03-29 12:44:00,
2013-03-29 08:45:00,38.4,21.9,30.22,NNW,338,0.0,0.0,51,0.00,,---,0.00,VWS V14.01,2013-03-29 12:45:00,
2013-03-29 08:49:00,38.6,21.6,30.22,NNW,338,0.0,0.0,50,0.00,,---,0.00,VWS V14.01,2013-03-29 12:49:00,
2013-03-29 08:53:00,38.8,21.8,30.23,NNW,338,0.0,0.0,50,0.00,,---,0.00,VWS V14.01,2013-03-29 12:53:00,
2013-03-29 08:54:00,39.1,22.0,30.23,NNW,338,0.0,0.0,50,0.00,,---,0.00,VWS V14.01,2013-03-29 12:54:00,
2013-03-29 08:55:00,39.1,22.0,30.23,NNW,338,0.0,0.0,50,0.00,,---,0.00,VWS V14.01,2013-03-29 12:55:00,
2013-03-29 08:58:00,39.5,22.4,30.23,NNW,338,0.0,0.0,50,0.00,,---,0.00,VWS V14.01,2013-03-29 12:58:00,
2013-03-29 08:59:00,39.9,22.8,30.23,NNW,338,0.0,0.0,50,0.00,,---,0.00,VWS V14.01,2013-03-29 12:59:00,
2013-03-29 09:00:00,39.9,22.8,30.23,NNW,338,0.0,0.0,50,0.00,,---,0.00,VWS V14.01,2013-03-29 13:00:00,
2013-03-29 09:03:00,39.7,21.1,30.23,NNW,338,0.0,0.0,47,0.00,,---,0.00,VWS V14.01,2013-03-29 13:03:00,
2013-03-29 09:05:00,39.9,21.3,30.23,NNW,338,0.0,0.0,47,0.00,,---,0.00,VWS V14.01,2013-03-29 13:05:00,
2013-03-29 09:08:00,40.0,20.4,30.23,NNW,338,0.0,0.0,45,0.00,,---,0.00,VWS V14.01,2013-03-29 13:08:00,
2013-03-29 09:10:00,40.0,20.4,30.23,NNW,338,0.0,0.0,45,0.00,,---,0.00,VWS V14.01,2013-03-29 13:10:00,
2013-03-29 09:11:00,40.2,20.6,30.23,NNW,338,0.0,0.0,45,0.00,,---,0.00,VWS V14.01,2013-03-29 13:11:00,
2013-03-29 09:14:00,40.4,20.2,30.23,NNW,338,0.0,0.0,44,0.00,,---,0.00,VWS V14.01,2013-03-29 13:14:00,
2013-03-29 09:15:00,40.4,20.2,30.23,NW,315,0.0,0.0,44,0.00,,---,0.00,VWS V14.01,2013-03-29 13:15:00,
2013-03-29 09:16:00,40.6,20.4,30.23,NW,315,0.0,0.0,44,0.00,,---,0.00,VWS V14.01,2013-03-29 13:16:00,
2013-03-29 09:19:00,40.9,21.2,30.24,NW,315,0.0,0.0,45,0.00,,---,0.00,VWS V14.01,2013-03-29 13:19:00,
2013-03-29 09:20:00,40.9,21.2,30.24,WNW,292,0.0,0.0,45,0.00,,---,0.00,VWS V14.01,2013-03-29 13:20:00,
2013-03-29 09:22:00,40.9,21.2,30.24,WNW,292,0.0,0.0,45,0.00,,---,0.00,VWS V14.01,2013-03-29 13:22:00,
2013-03-29 09:24:00,40.9,21.7,30.24,WNW,292,0.0,0.0,46,0.00,,---,0.00,VWS V14.01,2013-03-29 13:24:00,
2013-03-29 09:25:00,40.9,21.7,30.24,West,270,0.0,0.0,46,0.00,,---,0.00,VWS V14.01,2013-03-29 13:25:00,
2013-03-29 09:26:00,40.9,21.7,30.24,West,270,0.0,0.0,46,0.00,,---,0.00,VWS V14.01,2013-03-29 13:26:00,
2013-03-29 09:27:00,40.9,21.7,30.24,West,270,0.0,0.0,46,0.00,,---,0.00,VWS V14.01,2013-03-29 13:27:00,
2013-03-29 09:29:00,41.1,21.9,30.24,West,270,0.0,0.0,46,0.00,,---,0.00,VWS V14.01,2013-03-29 13:29:00,
2013-03-29 09:30:00,41.1,21.9,30.24,West,270,0.0,0.0,46,0.00,,---,0.00,VWS V14.01,2013-03-29 13:30:00,
2013-03-29 09:31:00,41.1,21.9,30.24,West,270,0.0,0.0,46,0.00,,---,0.00,VWS V14.01,2013-03-29 13:31:00,
2013-03-29 09:32:00,41.1,21.9,30.24,West,270,0.0,0.0,46,0.00,,---,0.00,VWS V14.01,2013-03-29 13:32:00,
2013-03-29 09:34:00,40.9,21.2,30.24,West,270,0.0,0.0,45,0.00,,---,0.00,VWS V14.01,2013-03-29 13:34:00,
2013-03-29 09:36:00,41.1,21.4,30.24,West,270,0.0,0.0,45,0.00,,---,0.00,VWS V14.01,2013-03-29 13:36:00,
2013-03-29 09:38:00,41.1,21.9,30.24,West,270,0.0,0.0,46,0.00,,---,0.00,VWS V14.01,2013-03-29 13:38:00,
2013-03-29 09:40:00,41.1,21.9,30.24,West,270,0.0,0.0,46,0.00,,---,0.00,VWS V14.01,2013-03-29 13:40:00,
2013-03-29 09:41:00,40.9,21.2,30.24,West,270,0.0,0.0,45,0.00,,---,0.00,VWS V14.01,2013-03-29 13:41:00,
2013-03-29 09:42:00,41.3,22.1,30.24,West,270,0.0,0.0,46,0.00,,---,0.00,VWS V14.01,2013-03-29 13:42:00,
2013-03-29 09:43:00,41.3,22.1,30.24,West,270,0.0,0.0,46,0.00,,---,0.00,VWS V14.01,2013-03-29 13:43:00,
2013-03-29 09:45:00,41.5,22.3,30.24,West,270,0.0,0.0,46,0.00,,---,0.00,VWS V14.01,2013-03-29 13:45:00,
2013-03-29 09:47:00,41.5,22.3,30.24,West,270,0.0,0.0,46,0.00,,---,0.00,VWS V14.01,2013-03-29 13:47:00,
2013-03-29 09:48:00,41.5,22.3,30.24,West,270,0.0,0.0,46,0.00,,---,0.00,VWS V14.01,2013-03-29 13:48:00,
2013-03-29 09:51:00,41.7,22.5,30.24,West,270,0.0,0.0,46,0.00,,---,0.00,VWS V14.01,2013-03-29 13:51:00,
2013-03-29 09:52:00,41.7,21.9,30.24,West,270,0.0,0.0,45,0.00,,---,0.00,VWS V14.01,2013-03-29 13:52:00,
2013-03-29 09:53:00,41.7,21.9,30.24,West,270,0.0,0.0,45,0.00,,---,0.00,VWS V14.01,2013-03-29 13:53:00,
2013-03-29 09:56:00,41.8,22.0,30.24,West,270,0.0,0.0,45,0.00,,---,0.00,VWS V14.01,2013-03-29 13:56:00,
2013-03-29 09:57:00,42.2,22.4,30.24,West,270,0.0,0.0,45,0.00,,---,0.00,VWS V14.01,2013-03-29 13:57:00,
2013-03-29 09:58:00,42.2,22.4,30.24,West,270,0.0,0.0,45,0.00,,---,0.00,VWS V14.01,2013-03-29 13:58:00,
2013-03-29 09:59:00,42.2,22.4,30.24,West,270,0.0,0.0,45,0.00,,---,0.00,VWS V14.01,2013-03-29 13:59:00,
2013-03-29 10:02:00,42.2,22.4,30.24,West,270,0.0,0.0,45,0.00,,---,0.00,VWS V14.01,2013-03-29 14:02:00,
2013-03-29 10:03:00,42.2,22.4,30.24,West,270,0.0,0.0,45,0.00,,---,0.00,VWS V14.01,2013-03-29 14:03:00,
2013-03-29 10:04:00,42.4,22.6,30.24,West,270,0.0,0.0,45,0.00,,---,0.00,VWS V14.01,2013-03-29 14:04:00,
2013-03-29 10:07:00,42.7,22.9,30.24,West,270,0.0,0.0,45,0.00,,---,0.00,VWS V14.01,2013-03-29 14:07:00,
2013-03-29 10:08:00,42.7,22.9,30.24,West,270,0.0,0.0,45,0.00,,---,0.00,VWS V14.01,2013-03-29 14:08:00,
2013-03-29 10:09:00,42.7,22.9,30.24,West,270,0.0,0.0,45,0.00,,---,0.00,VWS V14.01,2013-03-29 14:09:00,
2013-03-29 10:12:00,42.9,22.5,30.24,West,270,0.0,0.0,44,0.00,,---,0.00,VWS V14.01,2013-03-29 14:12:00,
2013-03-29 10:13:00,42.9,22.5,30.24,West,270,0.0,0.0,44,0.00,,---,0.00,VWS V14.01,2013-03-29 14:13:00,
2013-03-29 10:15:00,42.9,22.5,30.24,West,270,0.0,0.0,44,0.00,,---,0.00,VWS V14.01,2013-03-29 14:15:00,
2013-03-29 10:17:00,43.1,22.7,30.25,West,270,0.0,0.0,44,0.00,,---,0.00,VWS V14.01,2013-03-29 14:17:00,
2013-03-29 10:18:00,43.1,22.7,30.25,West,270,0.0,0.0,44,0.00,,---,0.00,VWS V14.01,2013-03-29 14:18:00,
2013-03-29 10:20:00,42.9,21.4,30.25,West,270,0.0,0.0,42,0.00,,---,0.00,VWS V14.01,2013-03-29 14:20:00,
2013-03-29 10:22:00,43.1,21.6,30.25,West,270,0.0,0.0,42,0.00,,---,0.00,VWS V14.01,2013-03-29 14:22:00,
2013-03-29 10:23:00,43.1,21.6,30.25,West,270,0.0,0.0,42,0.00,,---,0.00,VWS V14.01,2013-03-29 14:23:00,
2013-03-29 10:25:00,43.1,21.6,30.25,West,270,0.0,0.0,42,0.00,,---,0.00,VWS V14.01,2013-03-29 14:25:00,
2013-03-29 10:28:00,42.9,21.4,30.25,West,270,0.0,0.0,42,0.00,,---,0.00,VWS V14.01,2013-03-29 14:28:00,
2013-03-29 10:31:00,42.9,20.8,30.25,West,270,0.0,0.0,41,0.00,,---,0.00,VWS V14.01,2013-03-29 14:31:00,
2013-03-29 10:33:00,42.7,20.7,30.25,WNW,292,0.0,0.0,41,0.00,,---,0.00,VWS V14.01,2013-03-29 14:33:00,
2013-03-29 10:36:00,42.9,20.8,30.26,West,270,0.0,0.0,41,0.00,,---,0.00,VWS V14.01,2013-03-29 14:36:00,
2013-03-29 10:38:00,43.3,21.2,30.26,WSW,248,0.0,0.0,41,0.00,,---,0.00,VWS V14.01,2013-03-29 14:38:00,
2013-03-29 10:42:00,43.3,20.6,30.26,WSW,248,0.0,0.0,40,0.00,,---,0.00,VWS V14.01,2013-03-29 14:42:00,
2013-03-29 10:43:00,43.3,20.6,30.26,WSW,248,0.0,0.0,40,0.00,,---,0.00,VWS V14.01,2013-03-29 14:43:00,
2013-03-29 10:44:00,43.3,20.6,30.26,WSW,248,0.0,0.0,40,0.00,,---,0.00,VWS V14.01,2013-03-29 14:44:00,
2013-03-29 10:47:00,43.5,20.8,30.26,WSW,248,0.0,0.0,40,0.00,,---,0.00,VWS V14.01,2013-03-29 14:47:00,
2013-03-29 10:48:00,43.5,20.2,30.26,WSW,248,0.0,0.0,39,0.00,,---,0.00,VWS V14.01,2013-03-29 14:48:00,
2013-03-29 10:49:00,43.5,20.2,30.26,WSW,248,0.0,0.0,39,0.00,,---,0.00,VWS V14.01,2013-03-29 14:49:00,
2013-03-29 10:53:00,43.5,19.6,30.26,WSW,248,0.0,0.0,38,0.00,,---,0.00,VWS V14.01,2013-03-29 14:53:00,
2013-03-29 10:54:00,43.5,19.6,30.26,WSW,248,0.0,0.0,38,0.00,,---,0.00,VWS V14.01,2013-03-29 14:54:00,
2013-03-29 10:58:00,43.6,19.1,30.25,WSW,248,0.0,0.0,37,0.00,,---,0.00,VWS V14.01,2013-03-29 14:58:00,
2013-03-29 10:59:00,43.8,19.2,30.25,WSW,248,0.0,0.0,37,0.00,,---,0.00,VWS V14.01,2013-03-29 14:59:00,
2013-03-29 11:03:00,44.4,19.8,30.25,WSW,248,0.0,0.0,37,0.00,,---,0.00,VWS V14.01,2013-03-29 15:03:00,
2013-03-29 11:04:00,44.4,19.8,30.25,WSW,248,0.0,0.0,37,0.00,,---,0.00,VWS V14.01,2013-03-29 15:04:00,
2013-03-29 11:05:00,44.4,19.8,30.25,WSW,248,0.0,0.0,37,0.00,,---,0.00,VWS V14.01,2013-03-29 15:05:00,
2013-03-29 11:08:00,44.5,19.9,30.26,WSW,248,0.0,0.0,37,0.00,,---,0.00,VWS V14.01,2013-03-29 15:08:00,
2013-03-29 11:09:00,44.5,20.5,30.26,WSW,248,0.0,0.0,38,0.00,,---,0.00,VWS V14.01,2013-03-29 15:09:00,
2013-03-29 11:10:00,44.5,20.5,30.26,WSW,248,0.0,0.0,38,0.00,,---,0.00,VWS V14.01,2013-03-29 15:10:00,
2013-03-29 11:13:00,44.7,21.3,30.26,WSW,248,0.0,0.0,39,0.00,,---,0.00,VWS V14.01,2013-03-29 15:13:00,
2013-03-29 11:14:00,44.7,21.3,30.26,WSW,248,0.0,0.0,39,0.00,,---,0.00,VWS V14.01,2013-03-29 15:14:00,
2013-03-29 11:15:00,44.7,21.3,30.26,WSW,248,0.0,0.0,39,0.00,,---,0.00,VWS V14.01,2013-03-29 15:15:00,
2013-03-29 11:18:00,44.7,21.9,30.26,WSW,248,0.0,0.0,40,0.00,,---,0.00,VWS V14.01,2013-03-29 15:18:00,
2013-03-29 11:20:00,44.7,21.9,30.26,WSW,248,0.0,0.0,40,0.00,,---,0.00,VWS V14.01,2013-03-29 15:20:00,
2013-03-29 11:23:00,45.1,22.8,30.26,WSW,248,0.0,0.0,41,0.00,,---,0.00,VWS V14.01,2013-03-29 15:23:00,
2013-03-29 11:25:00,45.3,23.6,30.26,WSW,248,0.0,0.0,42,0.00,,---,0.00,VWS V14.01,2013-03-29 15:25:00,
2013-03-29 11:28:00,45.6,25.5,30.26,WSW,248,0.0,0.0,45,0.00,,---,0.00,VWS V14.01,2013-03-29 15:28:00,
2013-03-29 11:30:00,45.8,25.7,30.27,WSW,248,0.0,0.0,45,0.00,,---,0.00,VWS V14.01,2013-03-29 15:30:00,
2013-03-29 11:31:00,45.8,25.7,30.26,WSW,248,0.0,0.0,45,0.00,,---,0.00,VWS V14.01,2013-03-29 15:31:00,
2013-03-29 11:34:00,46.2,26.6,30.26,SW,225,0.0,0.0,46,0.00,,---,0.00,VWS V14.01,2013-03-29 15:34:00,
2013-03-29 11:35:00,46.3,27.7,30.26,SW,225,0.0,0.0,48,0.00,,---,0.00,VWS V14.01,2013-03-29 15:35:00,
2013-03-29 11:36:00,46.3,27.7,30.26,SW,225,0.0,0.0,48,0.00,,---,0.00,VWS V14.01,2013-03-29 15:36:00,
2013-03-29 11:37:00,46.5,27.9,30.26,SW,225,0.0,0.0,48,0.00,,---,0.00,VWS V14.01,2013-03-29 15:37:00,
2013-03-29 11:40:00,46.7,28.1,30.27,SW,225,0.0,0.0,48,0.00,,---,0.00,VWS V14.01,2013-03-29 15:40:00,
2013-03-29 11:41:00,46.7,28.1,30.26,SW,225,0.0,0.0,48,0.00,,---,0.00,VWS V14.01,2013-03-29 15:41:00,
2013-03-29 11:43:00,46.9,28.2,30.27,SW,225,0.0,0.0,48,0.00,,---,0.00,VWS V14.01,2013-03-29 15:43:00,
2013-03-29 11:45:00,46.9,28.2,30.27,SW,225,0.0,0.0,48,0.00,,---,0.00,VWS V14.01,2013-03-29 15:45:00,
2013-03-29 11:46:00,47.1,28.4,30.27,SW,225,0.0,0.0,48,0.00,,---,0.00,VWS V14.01,2013-03-29 15:46:00,
2013-03-29 11:48:00,47.1,27.9,30.27,SW,225,0.0,0.0,47,0.00,,---,0.00,VWS V14.01,2013-03-29 15:48:00,
2013-03-29 11:50:00,47.1,27.9,30.27,SW,225,0.0,0.0,47,0.00,,---,0.00,VWS V14.01,2013-03-29 15:50:00,
2013-03-29 11:52:00,47.2,28.0,30.27,SW,225,0.0,0.0,47,0.00,,---,0.00,VWS V14.01,2013-03-29 15:52:00,
2013-03-29 11:53:00,47.2,28.0,30.27,SW,225,0.0,0.0,47,0.00,,---,0.00,VWS V14.01,2013-03-29 15:53:00,
2013-03-29 11:55:00,47.1,27.9,30.26,SW,225,0.0,0.0,47,0.00,,---,0.00,VWS V14.01,2013-03-29 15:55:00,
2013-03-29 11:57:00,47.4,28.7,30.26,SW,225,0.0,0.0,48,0.00,,---,0.00,VWS V14.01,2013-03-29 15:57:00,
2013-03-29 11:58:00,47.4,29.2,30.26,SW,225,0.0,0.0,49,0.00,,---,0.00,VWS V14.01,2013-03-29 15:58:00,
2013-03-29 12:01:00,47.4,29.2,30.26,SW,225,0.0,0.0,49,0.00,,---,0.00,VWS V14.01,2013-03-29 16:01:00,
2013-03-29 12:02:00,47.6,29.4,30.26,SW,225,0.0,0.0,49,0.00,,---,0.00,VWS V14.01,2013-03-29 16:02:00,
2013-03-29 12:03:00,47.6,29.4,30.26,SW,225,0.0,0.0,49,0.00,,---,0.00,VWS V14.01,2013-03-29 16:03:00,
2013-03-29 12:04:00,47.6,29.9,30.26,SW,225,0.0,0.0,50,0.00,,---,0.00,VWS V14.01,2013-03-29 16:04:00,
2013-03-29 12:07:00,47.6,29.9,30.26,SW,225,0.0,0.0,50,0.00,,---,0.00,VWS V14.01,2013-03-29 16:07:00,
2013-03-29 12:08:00,47.6,29.9,30.26,SW,225,0.0,0.0,50,0.00,,---,0.00,VWS V14.01,2013-03-29 16:08:00,
2013-03-29 12:09:00,47.6,29.9,30.26,NW,315,0.0,0.0,50,0.00,,---,0.00,VWS V14.01,2013-03-29 16:09:00,
2013-03-29 12:12:00,48.0,30.8,30.26,NE,45,0.0,0.0,51,0.00,,---,0.00,VWS V14.01,2013-03-29 16:12:00,
2013-03-29 12:13:00,48.0,30.8,30.25,NE,45,0.0,0.0,51,0.00,,---,0.00,VWS V14.01,2013-03-29 16:13:00,
2013-03-29 12:15:00,48.1,30.8,30.25,NE,45,0.0,0.0,51,0.00,,---,0.00,VWS V14.01,2013-03-29 16:15:00,
2013-03-29 12:17:00,48.3,31.0,30.25,ENE,68,0.0,0.0,51,0.00,,---,0.00,VWS V14.01,2013-03-29 16:17:00,
2013-03-29 12:18:00,48.3,31.0,30.25,ENE,68,0.0,0.0,51,0.00,,---,0.00,VWS V14.01,2013-03-29 16:18:00,
2013-03-29 12:20:00,48.5,31.7,30.25,ENE,68,0.0,0.0,52,0.00,,---,0.00,VWS V14.01,2013-03-29 16:20:00,
2013-03-29 12:22:00,48.7,31.9,30.25,ENE,68,0.0,0.0,52,0.00,,---,0.00,VWS V14.01,2013-03-29 16:22:00,
2013-03-29 12:23:00,48.7,31.9,30.25,ENE,68,0.0,0.0,52,0.00,,---,0.00,VWS V14.01,2013-03-29 16:23:00,
2013-03-29 12:26:00,49.2,31.9,30.25,ENE,68,0.0,0.0,51,0.00,,---,0.00,VWS V14.01,2013-03-29 16:26:00,
2013-03-29 12:28:00,49.4,32.0,30.25,ESE,112,2.6,2.6,51,0.00,,---,0.00,VWS V14.01,2013-03-29 16:28:00,
2013-03-29 12:32:00,49.8,32.4,30.25,ESE,112,0.0,0.0,51,0.00,,---,0.00,VWS V14.01,2013-03-29 16:32:00,
2013-03-29 12:33:00,49.9,32.0,30.25,ESE,112,0.0,0.0,50,0.00,,---,0.00,VWS V14.01,2013-03-29 16:33:00,
2013-03-29 12:34:00,49.9,32.0,30.25,ESE,112,0.0,0.0,50,0.00,,---,0.00,VWS V14.01,2013-03-29 16:34:00,
2013-03-29 12:37:00,50.1,31.2,30.25,SSE,158,0.0,0.0,48,0.00,,---,0.00,VWS V14.01,2013-03-29 16:37:00,
2013-03-29 12:38:00,50.1,31.2,30.25,SSE,158,0.0,0.0,48,0.00,,---,0.00,VWS V14.01,2013-03-29 16:38:00,
2013-03-29 12:39:00,50.1,30.7,30.25,South,180,0.0,0.0,47,0.00,,---,0.00,VWS V14.01,2013-03-29 16:39:00,
2013-03-29 12:40:00,50.1,30.7,30.25,South,180,0.0,0.0,47,0.00,,---,0.00,VWS V14.01,2013-03-29 16:40:00,
2013-03-29 12:43:00,50.1,30.1,30.25,SSW,202,0.0,0.0,46,0.00,,---,0.00,VWS V14.01,2013-03-29 16:43:00,
2013-03-29 12:44:00,50.1,30.1,30.25,SSW,202,0.0,0.0,46,0.00,,---,0.00,VWS V14.01,2013-03-29 16:44:00,
2013-03-29 12:45:00,50.1,30.1,30.25,SSW,202,0.0,0.0,46,0.00,,---,0.00,VWS V14.01,2013-03-29 16:45:00,
2013-03-29 12:49:00,50.3,30.3,30.25,South,180,0.0,0.0,46,0.00,,---,0.00,VWS V14.01,2013-03-29 16:49:00,
2013-03-29 12:51:00,50.3,30.3,30.25,South,180,6.2,6.2,46,0.00,,---,0.00,VWS V14.01,2013-03-29 16:51:00,
2013-03-29 12:54:00,50.1,30.1,30.25,South,180,6.4,6.4,46,0.00,,---,0.00,VWS V14.01,2013-03-29 16:54:00,
2013-03-29 12:56:00,49.9,30.0,30.25,SSW,202,0.0,6.4,46,0.00,,---,0.00,VWS V14.01,2013-03-29 16:56:00,
2013-03-29 12:59:00,49.9,29.4,30.25,SSW,202,0.0,0.0,45,0.00,,---,0.00,VWS V14.01,2013-03-29 16:59:00,
2013-03-29 13:00:00,49.9,29.4,30.25,SSW,202,0.0,0.0,45,0.00,,---,0.00,VWS V14.01,2013-03-29 17:00:00,
2013-03-29 13:01:00,49.6,29.1,30.25,SSE,158,0.0,0.0,45,0.00,,---,0.00,VWS V14.01,2013-03-29 17:01:00,
2013-03-29 13:04:00,49.8,29.3,30.25,South,180,3.8,3.8,45,0.00,,---,0.00,VWS V14.01,2013-03-29 17:04:00,
2013-03-29 13:05:00,49.6,29.1,30.25,SSE,158,4.9,4.9,45,0.00,,---,0.00,VWS V14.01,2013-03-29 17:05:00,
2013-03-29 13:07:00,49.4,29.0,30.25,SE,135,0.0,0.0,45,0.00,,---,0.00,VWS V14.01,2013-03-29 17:07:00,
2013-03-29 13:09:00,49.4,29.0,30.25,South,180,2.4,2.4,45,0.00,,---,0.00,VWS V14.01,2013-03-29 17:09:00,
2013-03-29 13:10:00,49.4,29.0,30.25,South,180,2.4,2.4,45,0.00,,---,0.00,VWS V14.01,2013-03-29 17:10:00,
2013-03-29 13:11:00,49.4,29.0,30.25,South,180,2.4,2.4,45,0.00,,---,0.00,VWS V14.01,2013-03-29 17:11:00,
2013-03-29 13:14:00,49.2,28.2,30.25,South,180,0.0,0.0,44,0.00,,---,0.00,VWS V14.01,2013-03-29 17:14:00,
2013-03-29 13:15:00,49.2,28.2,30.25,South,180,0.0,0.0,44,0.00,,---,0.00,VWS V14.01,2013-03-29 17:15:00,
2013-03-29 13:16:00,49.2,28.2,30.25,South,180,0.0,0.0,44,0.00,,---,0.00,VWS V14.01,2013-03-29 17:16:00,
2013-03-29 13:19:00,49.2,28.2,30.25,South,180,0.0,0.0,44,0.00,,---,0.00,VWS V14.01,2013-03-29 17:19:00,
2013-03-29 13:20:00,49.2,28.2,30.26,South,180,0.0,0.0,44,0.00,,---,0.00,VWS V14.01,2013-03-29 17:20:00,
2013-03-29 13:21:00,49.2,28.8,30.26,South,180,0.0,0.0,45,0.00,,---,0.00,VWS V14.01,2013-03-29 17:21:00,
2013-03-29 13:25:00,49.2,28.8,30.25,SE,135,0.0,0.0,45,0.00,,---,0.00,VWS V14.01,2013-03-29 17:25:00,
2013-03-29 13:26:00,49.0,28.6,30.25,SE,135,0.0,0.0,45,0.00,,---,0.00,VWS V14.01,2013-03-29 17:26:00,
2013-03-29 13:27:00,49.0,28.6,30.25,SE,135,0.0,0.0,45,0.00,,---,0.00,VWS V14.01,2013-03-29 17:27:00,
2013-03-29 13:30:00,48.9,28.0,30.25,SE,135,0.0,0.0,44,0.00,,---,0.00,VWS V14.01,2013-03-29 17:30:00,
2013-03-29 13:32:00,48.9,28.0,30.25,SE,135,0.0,0.0,44,0.00,,---,0.00,VWS V14.01,2013-03-29 17:32:00,
2013-03-29 13:35:00,49.0,28.6,30.25,SSE,158,0.0,0.0,45,0.00,,---,0.00,VWS V14.01,2013-03-29 17:35:00,
2013-03-29 13:37:00,48.9,28.5,30.25,SSE,158,0.0,0.0,45,0.00,,---,0.00,VWS V14.01,2013-03-29 17:37:00,
2013-03-29 13:41:00,48.9,28.5,30.25,South,180,6.4,6.4,45,0.00,,---,0.00,VWS V14.01,2013-03-29 17:41:00,
2013-03-29 13:42:00,48.9,28.5,30.25,South,180,6.4,6.4,45,0.00,,---,0.00,VWS V14.01,2013-03-29 17:42:00,
2013-03-29 13:46:00,48.3,28.5,30.25,South,180,0.0,0.0,46,0.00,,---,0.00,VWS V14.01,2013-03-29 17:46:00,
2013-03-29 13:47:00,48.3,28.5,30.25,South,180,0.0,0.0,46,0.00,,---,0.00,VWS V14.01,2013-03-29 17:47:00,
2013-03-29 13:51:00,48.3,29.5,30.25,SSW,202,0.0,0.0,48,0.00,,---,0.00,VWS V14.01,2013-03-29 17:51:00,
2013-03-29 13:52:00,48.3,29.5,30.25,SSW,202,0.0,0.0,48,0.00,,---,0.00,VWS V14.01,2013-03-29 17:52:00,
2013-03-29 13:53:00,48.3,29.5,30.25,SSW,202,0.0,0.0,48,0.00,,---,0.00,VWS V14.01,2013-03-29 17:53:00,
2013-03-29 13:57:00,48.3,29.5,30.25,SSW,202,0.0,0.0,48,0.00,,---,0.00,VWS V14.01,2013-03-29 17:57:00,
2013-03-29 13:58:00,48.3,29.5,30.25,SSW,202,0.0,0.0,48,0.00,,---,0.00,VWS V14.01,2013-03-29 17:58:00,
2013-03-29 14:02:00,48.0,29.3,30.24,SW,225,0.0,0.0,48,0.00,,---,0.00,VWS V14.01,2013-03-29 18:02:00,
2013-03-29 14:03:00,48.0,29.3,30.24,SW,225,0.0,0.0,48,0.00,,---,0.00,VWS V14.01,2013-03-29 18:03:00,
2013-03-29 14:07:00,47.6,28.9,30.24,West,270,0.0,0.0,48,0.00,,---,0.00,VWS V14.01,2013-03-29 18:07:00,
2013-03-29 14:08:00,47.6,28.9,30.24,West,270,0.0,0.0,48,0.00,,---,0.00,VWS V14.01,2013-03-29 18:08:00,
2013-03-29 14:12:00,47.2,29.0,30.24,South,180,0.0,0.0,49,0.00,,---,0.00,VWS V14.01,2013-03-29 18:12:00,
2013-03-29 14:13:00,47.2,29.0,30.24,South,180,0.0,0.0,49,0.00,,---,0.00,VWS V14.01,2013-03-29 18:13:00,
2013-03-29 14:14:00,47.1,28.9,30.24,South,180,0.0,0.0,49,0.00,,---,0.00,VWS V14.01,2013-03-29 18:14:00,
2013-03-29 14:18:00,47.2,29.5,30.24,SSW,202,0.0,0.0,50,0.00,,---,0.00,VWS V14.01,2013-03-29 18:18:00,
2013-03-29 14:19:00,47.4,29.7,30.24,SSW,202,0.0,0.0,50,0.00,,---,0.00,VWS V14.01,2013-03-29 18:19:00,
2013-03-29 14:20:00,47.4,29.7,30.24,SSW,202,0.0,0.0,50,0.00,,---,0.00,VWS V14.01,2013-03-29 18:20:00,
2013-03-29 14:23:00,47.6,30.9,30.24,SSW,202,0.0,0.0,52,0.00,,---,0.00,VWS V14.01,2013-03-29 18:23:00,
2013-03-29 14:24:00,47.6,30.9,30.24,SSW,202,0.0,0.0,52,0.02,,---,0.02,VWS V14.01,2013-03-29 18:24:00,
2013-03-29 14:25:00,47.6,30.9,30.24,SSW,202,0.0,0.0,52,0.02,,---,0.02,VWS V14.01,2013-03-29 18:25:00,
2013-03-29 14:28:00,47.6,30.9,30.24,SSW,202,0.0,0.0,52,0.02,,---,0.02,VWS V14.01,2013-03-29 18:28:00,
2013-03-29 14:29:00,47.6,30.9,30.24,SSW,202,0.0,0.0,52,0.02,,---,0.02,VWS V14.01,2013-03-29 18:29:00,
2013-03-29 14:31:00,48.0,31.2,30.24,SSW,202,0.0,0.0,52,0.02,,---,0.02,VWS V14.01,2013-03-29 18:31:00,
2013-03-29 14:33:00,48.0,31.2,30.24,SSW,202,0.0,0.0,52,0.02,,---,0.02,VWS V14.01,2013-03-29 18:33:00,
2013-03-29 14:34:00,48.1,31.3,30.23,SSW,202,0.0,0.0,52,0.02,,---,0.02,VWS V14.01,2013-03-29 18:34:00,
2013-03-29 14:36:00,48.1,31.3,30.24,SSW,202,0.0,0.0,52,0.02,,---,0.02,VWS V14.01,2013-03-29 18:36:00,
2013-03-29 14:37:00,48.1,31.3,30.24,SSW,202,0.0,0.0,52,0.02,,---,0.02,VWS V14.01,2013-03-29 18:37:00,
2013-03-29 14:39:00,48.1,31.8,30.23,SSW,202,0.0,0.0,53,0.02,,---,0.02,VWS V14.01,2013-03-29 18:39:00,
2013-03-29 14:40:00,48.1,31.8,30.23,SSW,202,0.0,0.0,53,0.02,,---,0.02,VWS V14.01,2013-03-29 18:40:00,
2013-03-29 14:41:00,48.1,31.8,30.23,SSW,202,0.0,0.0,53,0.02,,---,0.02,VWS V14.01,2013-03-29 18:41:00,
2013-03-29 14:42:00,48.1,31.8,30.23,SSW,202,0.0,0.0,53,0.02,,---,0.02,VWS V14.01,2013-03-29 18:42:00,
2013-03-29 14:44:00,48.1,31.8,30.23,SSW,202,0.0,0.0,53,0.02,,---,0.02,VWS V14.01,2013-03-29 18:44:00,
2013-03-29 14:45:00,48.1,31.8,30.23,SSW,202,0.0,0.0,53,0.02,,---,0.02,VWS V14.01,2013-03-29 18:45:00,
2013-03-29 14:47:00,48.1,31.8,30.23,SSW,202,0.0,0.0,53,0.02,,---,0.02,VWS V14.01,2013-03-29 18:47:00,
2013-03-29 14:50:00,48.1,32.7,30.23,SSW,202,0.0,0.0,55,0.02,,---,0.02,VWS V14.01,2013-03-29 18:50:00,
2013-03-29 14:52:00,48.1,32.7,30.23,SSW,202,0.0,0.0,55,0.02,,---,0.02,VWS V14.01,2013-03-29 18:52:00,
2013-03-29 14:53:00,48.1,32.7,30.23,SSW,202,0.0,0.0,55,0.02,,---,0.02,VWS V14.01,2013-03-29 18:53:00,
2013-03-29 14:55:00,48.3,32.9,30.23,SSW,202,0.0,0.0,55,0.02,,---,0.02,VWS V14.01,2013-03-29 18:55:00,
2013-03-29 14:57:00,48.1,32.7,30.23,SSW,202,0.0,0.0,55,0.02,,---,0.02,VWS V14.01,2013-03-29 18:57:00,
2013-03-29 14:58:00,48.1,32.7,30.23,SSW,202,0.0,0.0,55,0.02,,---,0.02,VWS V14.01,2013-03-29 18:58:00,
2013-03-29 15:01:00,48.3,32.9,30.23,SSW,202,0.0,0.0,55,0.02,,---,0.02,VWS V14.01,2013-03-29 19:01:00,
2013-03-29 15:02:00,48.3,33.3,30.23,SSW,202,0.0,0.0,56,0.02,,---,0.02,VWS V14.01,2013-03-29 19:02:00,
2013-03-29 15:03:00,48.3,33.3,30.23,SSW,202,0.0,0.0,56,0.02,,---,0.02,VWS V14.01,2013-03-29 19:03:00,
2013-03-29 15:06:00,48.3,32.9,30.23,SSW,202,0.0,0.0,55,0.02,,---,0.02,VWS V14.01,2013-03-29 19:06:00,
2013-03-29 15:07:00,48.3,32.9,30.23,SSW,202,0.0,0.0,55,0.04,,---,0.04,VWS V14.01,2013-03-29 19:07:00,
2013-03-29 15:08:00,48.3,33.3,30.22,SSW,202,0.0,0.0,56,0.04,,---,0.04,VWS V14.01,2013-03-29 19:08:00,
2013-03-29 15:12:00,48.3,33.3,30.22,SSW,202,0.0,0.0,56,0.04,,---,0.04,VWS V14.01,2013-03-29 19:12:00,
2013-03-29 15:13:00,48.3,33.3,30.22,SSW,202,0.0,0.0,56,0.04,,---,0.04,VWS V14.01,2013-03-29 19:13:00,
2013-03-29 15:17:00,48.3,33.8,30.22,SSW,202,0.0,0.0,57,0.04,,---,0.04,VWS V14.01,2013-03-29 19:17:00,
2013-03-29 15:18:00,48.3,33.8,30.22,SSW,202,0.0,0.0,57,0.04,,---,0.04,VWS V14.01,2013-03-29 19:18:00,
2013-03-29 15:23:00,48.3,34.2,30.22,SSW,202,0.0,0.0,58,0.04,,---,0.04,VWS V14.01,2013-03-29 19:23:00,
2013-03-29 15:24:00,48.5,34.4,30.22,SSW,202,0.0,0.0,58,0.04,,---,0.04,VWS V14.01,2013-03-29 19:24:00,
2013-03-29 15:28:00,48.3,34.7,30.22,SSW,202,0.0,0.0,59,0.02,,---,0.04,VWS V14.01,2013-03-29 19:28:00,
2013-03-29 15:29:00,48.3,34.7,30.22,SSW,202,0.0,0.0,59,0.02,,---,0.04,VWS V14.01,2013-03-29 19:29:00,
2013-03-29 15:33:00,48.3,35.1,30.22,SSW,202,0.0,0.0,60,0.02,,---,0.04,VWS V14.01,2013-03-29 19:33:00,
2013-03-29 15:34:00,48.3,35.1,30.22,SSW,202,0.0,0.0,60,0.02,,---,0.04,VWS V14.01,2013-03-29 19:34:00,
2013-03-29 15:38:00,48.1,34.9,30.22,SSW,202,0.0,0.0,60,0.02,,---,0.04,VWS V14.01,2013-03-29 19:38:00,
2013-03-29 15:39:00,48.1,34.9,30.22,SSW,202,0.0,0.0,60,0.02,,---,0.04,VWS V14.01,2013-03-29 19:39:00,
2013-03-29 15:44:00,48.1,34.9,30.22,SSW,202,0.0,0.0,60,0.02,,---,0.04,VWS V14.01,2013-03-29 19:44:00,
2013-03-29 15:49:00,48.1,35.3,30.22,SSW,202,0.0,0.0,61,0.02,,---,0.04,VWS V14.01,2013-03-29 19:49:00,
2013-03-29 15:50:00,48.1,35.3,30.21,SSW,202,0.0,0.0,61,0.02,,---,0.04,VWS V14.01,2013-03-29 19:50:00,
2013-03-29 15:54:00,48.1,35.7,30.21,South,180,0.0,0.0,62,0.02,,---,0.04,VWS V14.01,2013-03-29 19:54:00,
2013-03-29 15:55:00,48.1,35.7,30.21,South,180,0.0,0.0,62,0.02,,---,0.04,VWS V14.01,2013-03-29 19:55:00,
2013-03-29 15:59:00,48.1,35.7,30.21,SSE,158,0.0,0.0,62,0.04,,---,0.06,VWS V14.01,2013-03-29 19:59:00,
2013-03-29 16:00:00,48.1,35.7,30.21,SSE,158,0.0,0.0,62,0.04,,---,0.06,VWS V14.01,2013-03-29 20:00:00,
2013-03-29 16:04:00,48.0,36.0,30.21,SSE,158,0.0,0.0,63,0.04,,---,0.06,VWS V14.01,2013-03-29 20:04:00,
2013-03-29 16:05:00,48.0,36.0,30.21,SSE,158,0.0,0.0,63,0.04,,---,0.06,VWS V14.01,2013-03-29 20:05:00,
2013-03-29 16:10:00,47.6,35.6,30.21,SSE,158,0.0,0.0,63,0.02,,---,0.06,VWS V14.01,2013-03-29 20:10:00,
2013-03-29 16:15:00,47.8,36.2,30.21,SSE,158,0.0,0.0,64,0.02,,---,0.06,VWS V14.01,2013-03-29 20:15:00,
2013-03-29 16:20:00,47.6,36.0,30.20,SSE,158,0.0,0.0,64,0.02,,---,0.06,VWS V14.01,2013-03-29 20:20:00,
2013-03-29 16:21:00,47.6,36.0,30.20,SSE,158,0.0,0.0,64,0.02,,---,0.06,VWS V14.01,2013-03-29 20:21:00,
2013-03-29 16:25:00,47.6,36.0,30.21,SSE,158,0.0,0.0,64,0.02,,---,0.06,VWS V14.01,2013-03-29 20:25:00,
2013-03-29 16:26:00,47.6,36.0,30.21,SSE,158,0.0,0.0,64,0.02,,---,0.06,VWS V14.01,2013-03-29 20:26:00,
2013-03-29 16:27:00,47.6,36.0,30.21,SSE,158,0.0,0.0,64,0.02,,---,0.06,VWS V14.01,2013-03-29 20:27:00,
2013-03-29 16:30:00,47.8,36.6,30.20,SSE,158,0.0,0.0,65,0.02,,---,0.06,VWS V14.01,2013-03-29 20:30:00,
2013-03-29 16:31:00,48.0,36.8,30.20,SSE,158,0.0,0.0,65,0.02,,---,0.06,VWS V14.01,2013-03-29 20:31:00,
2013-03-29 16:32:00,48.0,36.8,30.20,SSE,158,0.0,0.0,65,0.02,,---,0.06,VWS V14.01,2013-03-29 20:32:00,
2013-03-29 16:35:00,47.8,37.0,30.20,SSE,158,0.0,0.0,66,0.02,,---,0.06,VWS V14.01,2013-03-29 20:35:00,
2013-03-29 16:36:00,47.8,37.0,30.20,SSE,158,0.0,0.0,66,0.02,,---,0.06,VWS V14.01,2013-03-29 20:36:00,
2013-03-29 16:37:00,47.8,37.0,30.20,SSE,158,0.0,0.0,66,0.02,,---,0.06,VWS V14.01,2013-03-29 20:37:00,
2013-03-29 16:41:00,47.4,36.2,30.20,SSE,158,0.0,0.0,65,0.02,,---,0.06,VWS V14.01,2013-03-29 20:41:00,
2013-03-29 16:42:00,47.4,36.6,30.20,SSE,158,0.0,0.0,66,0.02,,---,0.06,VWS V14.01,2013-03-29 20:42:00,
2013-03-29 16:43:00,47.4,36.6,30.20,SSE,158,0.0,0.0,66,0.02,,---,0.06,VWS V14.01,2013-03-29 20:43:00,
2013-03-29 16:46:00,47.4,36.6,30.20,SSE,158,0.0,0.0,66,0.02,,---,0.06,VWS V14.01,2013-03-29 20:46:00,
2013-03-29 16:47:00,47.6,36.8,30.20,SSE,158,0.0,0.0,66,0.02,,---,0.06,VWS V14.01,2013-03-29 20:47:00,
2013-03-29 16:48:00,47.6,36.8,30.19,SSE,158,0.0,0.0,66,0.02,,---,0.06,VWS V14.01,2013-03-29 20:48:00,
2013-03-29 16:52:00,48.1,37.7,30.20,SSE,158,0.0,0.0,67,0.02,,---,0.06,VWS V14.01,2013-03-29 20:52:00,
2013-03-29 16:53:00,48.1,37.3,30.20,SSE,158,0.0,0.0,66,0.02,,---,0.06,VWS V14.01,2013-03-29 20:53:00,
2013-03-29 16:57:00,47.4,36.6,30.20,SSE,158,0.0,0.0,66,0.02,,---,0.06,VWS V14.01,2013-03-29 20:57:00,
2013-03-29 16:58:00,47.6,37.2,30.20,SSE,158,0.0,0.0,67,0.02,,---,0.08,VWS V14.01,2013-03-29 20:58:00,
2013-03-29 17:02:00,47.4,37.0,30.20,SSE,158,0.0,0.0,67,0.02,,---,0.08,VWS V14.01,2013-03-29 21:02:00,
2013-03-29 17:03:00,47.2,36.8,30.20,ESE,112,0.0,0.0,67,0.02,,---,0.08,VWS V14.01,2013-03-29 21:03:00,
2013-03-29 17:07:00,47.2,36.8,30.19,ESE,112,0.0,0.0,67,0.02,,---,0.08,VWS V14.01,2013-03-29 21:07:00,
2013-03-29 17:08:00,47.2,36.8,30.19,ESE,112,0.0,0.0,67,0.02,,---,0.08,VWS V14.01,2013-03-29 21:08:00,
2013-03-29 17:13:00,47.4,37.4,30.19,ESE,112,0.0,0.0,68,0.02,,---,0.08,VWS V14.01,2013-03-29 21:13:00,
2013-03-29 17:14:00,47.4,37.4,30.19,ESE,112,0.0,0.0,68,0.02,,---,0.08,VWS V14.01,2013-03-29 21:14:00,
2013-03-29 17:18:00,47.1,37.1,30.19,ESE,112,0.0,0.0,68,0.02,,---,0.08,VWS V14.01,2013-03-29 21:18:00,
2013-03-29 17:19:00,47.1,37.1,30.19,ESE,112,0.0,0.0,68,0.02,,---,0.08,VWS V14.01,2013-03-29 21:19:00,
2013-03-29 17:23:00,47.2,37.2,30.19,ESE,112,0.0,0.0,68,0.02,,---,0.08,VWS V14.01,2013-03-29 21:23:00,
2013-03-29 17:24:00,47.2,37.2,30.19,ESE,112,0.0,0.0,68,0.02,,---,0.08,VWS V14.01,2013-03-29 21:24:00,
2013-03-29 17:28:00,47.1,37.1,30.18,ESE,112,0.0,0.0,68,0.02,,---,0.08,VWS V14.01,2013-03-29 21:28:00,
2013-03-29 17:29:00,47.1,37.1,30.18,ESE,112,0.0,0.0,68,0.02,,---,0.08,VWS V14.01,2013-03-29 21:29:00,
2013-03-29 17:30:00,46.9,36.9,30.18,ESE,112,0.0,0.0,68,0.02,,---,0.08,VWS V14.01,2013-03-29 21:30:00,
2013-03-29 17:34:00,46.3,36.7,30.19,ESE,112,0.0,0.0,69,0.02,,---,0.08,VWS V14.01,2013-03-29 21:34:00,
2013-03-29 17:35:00,46.3,36.7,30.19,ESE,112,0.0,0.0,69,0.02,,---,0.08,VWS V14.01,2013-03-29 21:35:00,
2013-03-29 17:39:00,46.3,36.7,30.18,ESE,112,0.0,0.0,69,0.02,,---,0.08,VWS V14.01,2013-03-29 21:39:00,
2013-03-29 17:40:00,46.0,36.4,30.18,ESE,112,0.0,0.0,69,0.02,,---,0.08,VWS V14.01,2013-03-29 21:40:00,
2013-03-29 17:44:00,45.8,36.2,30.18,ESE,112,0.0,0.0,69,0.02,,---,0.08,VWS V14.01,2013-03-29 21:44:00,
2013-03-29 17:45:00,45.8,36.2,30.19,ENE,68,0.0,0.0,69,0.02,,---,0.08,VWS V14.01,2013-03-29 21:45:00,
2013-03-29 17:49:00,45.4,35.8,30.18,ENE,68,0.0,0.0,69,0.02,,---,0.08,VWS V14.01,2013-03-29 21:49:00,
2013-03-29 17:50:00,45.4,35.8,30.19,ENE,68,0.0,0.0,69,0.02,,---,0.08,VWS V14.01,2013-03-29 21:50:00,
2013-03-29 17:54:00,45.3,36.1,30.18,ENE,68,0.0,0.0,70,0.02,,---,0.08,VWS V14.01,2013-03-29 21:54:00,
2013-03-29 17:55:00,45.3,36.1,30.18,ENE,68,0.0,0.0,70,0.02,,---,0.08,VWS V14.01,2013-03-29 21:55:00,
2013-03-29 17:59:00,45.1,35.9,30.18,ENE,68,0.0,0.0,70,0.00,,---,0.08,VWS V14.01,2013-03-29 21:59:00,
2013-03-29 18:00:00,45.1,35.9,30.18,ENE,68,0.0,0.0,70,0.00,,---,0.08,VWS V14.01,2013-03-29 22:00:00,
2013-03-29 18:02:00,44.9,36.1,30.18,ENE,68,0.0,0.0,71,0.00,,---,0.08,VWS V14.01,2013-03-29 22:02:00,
2013-03-29 18:05:00,45.1,36.6,30.18,ENE,68,0.0,0.0,72,0.00,,---,0.08,VWS V14.01,2013-03-29 22:05:00,
2013-03-29 18:06:00,45.1,36.6,30.18,ENE,68,0.0,0.0,72,0.02,,---,0.10,VWS V14.01,2013-03-29 22:06:00,
2013-03-29 18:07:00,45.1,36.6,30.18,ENE,68,0.0,0.0,72,0.02,,---,0.10,VWS V14.01,2013-03-29 22:07:00,
2013-03-29 18:10:00,45.1,37.0,30.18,ENE,68,0.0,0.0,73,0.02,,---,0.10,VWS V14.01,2013-03-29 22:10:00,
2013-03-29 18:11:00,45.1,37.0,30.18,ENE,68,0.0,0.0,73,0.02,,---,0.10,VWS V14.01,2013-03-29 22:11:00,
2013-03-29 18:13:00,45.1,37.0,30.18,ENE,68,0.0,0.0,73,0.02,,---,0.10,VWS V14.01,2013-03-29 22:13:00,
2013-03-29 18:15:00,45.1,37.0,30.18,ENE,68,0.0,0.0,73,0.02,,---,0.10,VWS V14.01,2013-03-29 22:15:00,
2013-03-29 18:16:00,45.1,37.0,30.18,ENE,68,0.0,0.0,73,0.02,,---,0.10,VWS V14.01,2013-03-29 22:16:00,
2013-03-29 18:17:00,45.1,37.0,30.18,ENE,68,0.0,0.0,73,0.02,,---,0.10,VWS V14.01,2013-03-29 22:17:00,
2013-03-29 18:18:00,45.1,37.0,30.18,ENE,68,0.0,0.0,73,0.02,,---,0.10,VWS V14.01,2013-03-29 22:18:00,
2013-03-29 18:20:00,44.9,37.1,30.18,ENE,68,0.0,0.0,74,0.02,,---,0.10,VWS V14.01,2013-03-29 22:20:00,
2013-03-29 18:22:00,44.9,37.1,30.18,ENE,68,0.0,0.0,74,0.02,,---,0.10,VWS V14.01,2013-03-29 22:22:00,
2013-03-29 18:23:00,44.9,37.1,30.18,ENE,68,0.0,0.0,74,0.02,,---,0.10,VWS V14.01,2013-03-29 22:23:00,
2013-03-29 18:25:00,45.1,37.3,30.18,ENE,68,0.0,0.0,74,0.02,,---,0.10,VWS V14.01,2013-03-29 22:25:00,
2013-03-29 18:27:00,45.1,37.3,30.17,ENE,68,0.0,0.0,74,0.02,,---,0.10,VWS V14.01,2013-03-29 22:27:00,
2013-03-29 18:28:00,45.1,37.3,30.17,ENE,68,0.0,0.0,74,0.02,,---,0.10,VWS V14.01,2013-03-29 22:28:00,
2013-03-29 18:30:00,45.1,37.3,30.17,ENE,68,0.0,0.0,74,0.02,,---,0.10,VWS V14.01,2013-03-29 22:30:00,
2013-03-29 18:32:00,45.1,37.7,30.17,ENE,68,0.0,0.0,75,0.02,,---,0.10,VWS V14.01,2013-03-29 22:32:00,
2013-03-29 18:33:00,45.1,37.7,30.17,ENE,68,0.0,0.0,75,0.02,,---,0.10,VWS V14.01,2013-03-29 22:33:00,
2013-03-29 18:34:00,45.3,37.9,30.17,ENE,68,0.0,0.0,75,0.02,,---,0.10,VWS V14.01,2013-03-29 22:34:00,
2013-03-29 18:37:00,45.1,37.7,30.17,ENE,68,0.0,0.0,75,0.02,,---,0.10,VWS V14.01,2013-03-29 22:37:00,
2013-03-29 18:38:00,45.3,37.9,30.17,ENE,68,0.0,0.0,75,0.02,,---,0.10,VWS V14.01,2013-03-29 22:38:00,
2013-03-29 18:39:00,45.3,37.9,30.17,ENE,68,0.0,0.0,75,0.02,,---,0.10,VWS V14.01,2013-03-29 22:39:00,
2013-03-29 18:42:00,45.1,37.7,30.18,ENE,68,0.0,0.0,75,0.02,,---,0.10,VWS V14.01,2013-03-29 22:42:00,
2013-03-29 18:43:00,45.1,37.7,30.18,ENE,68,0.0,0.0,75,0.02,,---,0.10,VWS V14.01,2013-03-29 22:43:00,
2013-03-29 18:44:00,45.3,37.9,30.18,ENE,68,0.0,0.0,75,0.02,,---,0.10,VWS V14.01,2013-03-29 22:44:00,
2013-03-29 18:47:00,45.1,37.3,30.17,ENE,68,0.0,0.0,74,0.02,,---,0.10,VWS V14.01,2013-03-29 22:47:00,
2013-03-29 18:48:00,45.1,37.3,30.17,ENE,68,0.0,0.0,74,0.02,,---,0.10,VWS V14.01,2013-03-29 22:48:00,
2013-03-29 18:49:00,45.3,37.9,30.17,ENE,68,0.0,0.0,75,0.04,,---,0.12,VWS V14.01,2013-03-29 22:49:00,
2013-03-29 18:52:00,45.1,37.7,30.17,ENE,68,0.0,0.0,75,0.04,,---,0.12,VWS V14.01,2013-03-29 22:52:00,
2013-03-29 18:53:00,45.1,37.7,30.17,ENE,68,0.0,0.0,75,0.04,,---,0.12,VWS V14.01,2013-03-29 22:53:00,
2013-03-29 18:54:00,44.9,37.5,30.17,ENE,68,0.0,0.0,75,0.04,,---,0.12,VWS V14.01,2013-03-29 22:54:00,
2013-03-29 18:55:00,44.9,37.5,30.17,ENE,68,0.0,0.0,75,0.04,,---,0.12,VWS V14.01,2013-03-29 22:55:00,
2013-03-29 18:57:00,45.1,37.7,30.17,ENE,68,0.0,0.0,75,0.04,,---,0.12,VWS V14.01,2013-03-29 22:57:00,
2013-03-29 18:59:00,44.7,37.3,30.17,ENE,68,0.0,0.0,75,0.04,,---,0.12,VWS V14.01,2013-03-29 22:59:00,
2013-03-29 19:00:00,44.7,37.3,30.17,ENE,68,0.0,0.0,75,0.04,,---,0.12,VWS V14.01,2013-03-29 23:00:00,
2013-03-29 19:03:00,44.5,37.1,30.17,ENE,68,0.0,0.0,75,0.04,,---,0.12,VWS V14.01,2013-03-29 23:03:00,
2013-03-29 19:04:00,44.5,37.1,30.17,ENE,68,0.0,0.0,75,0.04,,---,0.12,VWS V14.01,2013-03-29 23:04:00,
2013-03-29 19:05:00,44.4,37.3,30.17,ENE,68,0.0,0.0,76,0.04,,---,0.12,VWS V14.01,2013-03-29 23:05:00,
2013-03-29 19:08:00,44.4,37.3,30.16,ENE,68,0.0,0.0,76,0.02,,---,0.12,VWS V14.01,2013-03-29 23:08:00,
2013-03-29 19:09:00,44.4,37.3,30.16,ENE,68,0.0,0.0,76,0.02,,---,0.12,VWS V14.01,2013-03-29 23:09:00,
2013-03-29 19:10:00,44.4,37.3,30.16,ENE,68,0.0,0.0,76,0.02,,---,0.12,VWS V14.01,2013-03-29 23:10:00,
2013-03-29 19:13:00,44.4,37.3,30.16,East,90,0.0,0.0,76,0.02,,---,0.12,VWS V14.01,2013-03-29 23:13:00,
2013-03-29 19:14:00,44.4,37.7,30.16,East,90,0.0,0.0,77,0.02,,---,0.12,VWS V14.01,2013-03-29 23:14:00,
2013-03-29 19:15:00,44.5,37.8,30.16,East,90,0.0,0.0,77,0.02,,---,0.12,VWS V14.01,2013-03-29 23:15:00,
2013-03-29 19:16:00,44.5,37.8,30.16,East,90,0.0,0.0,77,0.02,,---,0.12,VWS V14.01,2013-03-29 23:16:00,
2013-03-29 19:18:00,44.5,37.8,30.17,East,90,0.0,0.0,77,0.02,,---,0.12,VWS V14.01,2013-03-29 23:18:00,
2013-03-29 19:19:00,44.5,37.8,30.16,East,90,0.0,0.0,77,0.02,,---,0.12,VWS V14.01,2013-03-29 23:19:00,
2013-03-29 19:21:00,44.5,37.8,30.16,East,90,0.0,0.0,77,0.02,,---,0.12,VWS V14.01,2013-03-29 23:21:00,
2013-03-29 19:23:00,44.2,37.5,30.16,ENE,68,0.0,0.0,77,0.02,,---,0.12,VWS V14.01,2013-03-29 23:23:00,
2013-03-29 19:24:00,44.2,37.5,30.16,ENE,68,0.0,0.0,77,0.02,,---,0.12,VWS V14.01,2013-03-29 23:24:00,
2013-03-29 19:26:00,44.4,37.7,30.16,East,90,0.0,0.0,77,0.02,,---,0.12,VWS V14.01,2013-03-29 23:26:00,
2013-03-29 19:27:00,44.4,37.7,30.16,East,90,0.0,0.0,77,0.02,,---,0.12,VWS V14.01,2013-03-29 23:27:00,
2013-03-29 19:28:00,44.5,38.1,30.16,ENE,68,0.0,0.0,78,0.02,,---,0.12,VWS V14.01,2013-03-29 23:28:00,
2013-03-29 19:30:00,44.4,37.7,30.16,ENE,68,0.0,0.0,77,0.02,,---,0.12,VWS V14.01,2013-03-29 23:30:00,
2013-03-29 19:31:00,44.4,37.7,30.16,ENE,68,0.0,0.0,77,0.02,,---,0.12,VWS V14.01,2013-03-29 23:31:00,
2013-03-29 19:32:00,44.4,37.7,30.16,ENE,68,0.0,0.0,77,0.02,,---,0.12,VWS V14.01,2013-03-29 23:32:00,
2013-03-29 19:33:00,44.2,37.5,30.16,ENE,68,0.0,0.0,77,0.02,,---,0.12,VWS V14.01,2013-03-29 23:33:00,
2013-03-29 19:36:00,45.1,38.3,30.16,NE,45,0.0,0.0,77,0.02,,---,0.12,VWS V14.01,2013-03-29 23:36:00,
2013-03-29 19:37:00,45.1,38.3,30.16,NE,45,0.0,0.0,77,0.02,,---,0.12,VWS V14.01,2013-03-29 23:37:00,
2013-03-29 19:38:00,45.1,38.7,30.16,NE,45,0.0,0.0,78,0.02,,---,0.12,VWS V14.01,2013-03-29 23:38:00,
2013-03-29 19:41:00,44.9,38.5,30.16,NE,45,0.0,0.0,78,0.02,,---,0.12,VWS V14.01,2013-03-29 23:41:00,
2013-03-29 19:42:00,44.9,38.5,30.16,NE,45,0.0,0.0,78,0.02,,---,0.12,VWS V14.01,2013-03-29 23:42:00,
2013-03-29 19:43:00,44.5,38.1,30.16,NE,45,0.0,0.0,78,0.02,,---,0.12,VWS V14.01,2013-03-29 23:43:00,
2013-03-29 19:47:00,44.4,38.0,30.16,NE,45,0.0,0.0,78,0.02,,---,0.12,VWS V14.01,2013-03-29 23:47:00,
2013-03-29 19:48:00,44.5,38.1,30.16,NE,45,0.0,0.0,78,0.00,,---,0.12,VWS V14.01,2013-03-29 23:48:00,
2013-03-29 19:52:00,44.0,37.6,30.15,NE,45,0.0,0.0,78,0.00,,---,0.12,VWS V14.01,2013-03-29 23:52:00,
2013-03-29 19:53:00,44.0,37.6,30.15,NE,45,0.0,0.0,78,0.00,,---,0.12,VWS V14.01,2013-03-29 23:53:00,
2013-03-29 19:54:00,44.0,37.6,30.15,NE,45,0.0,0.0,78,0.00,,---,0.12,VWS V14.01,2013-03-29 23:54:00,
2013-03-29 19:58:00,43.8,37.4,30.15,NE,45,0.0,0.0,78,0.00,,---,0.12,VWS V14.01,2013-03-29 23:58:00,
2013-03-29 19:59:00,43.8,37.4,30.16,NE,45,0.0,0.0,78,0.00,,---,0.12,VWS V14.01,2013-03-29 23:59:00,
2013-03-29 20:03:00,43.5,37.4,30.15,NE,45,0.0,0.0,79,0.00,,---,0.12,VWS V14.01,2013-03-30 00:03:00,
2013-03-29 20:04:00,43.5,37.4,30.15,NE,45,0.0,0.0,79,0.00,,---,0.12,VWS V14.01,2013-03-30 00:04:00,
2013-03-29 20:09:00,43.6,37.5,30.15,NE,45,0.0,0.0,79,0.00,,---,0.12,VWS V14.01,2013-03-30 00:09:00,
2013-03-29 20:14:00,43.8,37.7,30.15,East,90,0.0,0.0,79,0.00,,---,0.12,VWS V14.01,2013-03-30 00:14:00,
2013-03-29 20:15:00,43.8,37.7,30.15,East,90,0.0,0.0,79,0.00,,---,0.12,VWS V14.01,2013-03-30 00:15:00,
2013-03-29 20:19:00,43.8,37.7,30.15,East,90,0.0,0.0,79,0.00,,---,0.12,VWS V14.01,2013-03-30 00:19:00,
2013-03-29 20:20:00,43.5,37.4,30.15,East,90,0.0,0.0,79,0.00,,---,0.12,VWS V14.01,2013-03-30 00:20:00,
2013-03-29 20:24:00,43.8,37.7,30.15,East,90,0.0,0.0,79,0.00,,---,0.12,VWS V14.01,2013-03-30 00:24:00,
2013-03-29 20:25:00,43.8,37.7,30.15,East,90,0.0,0.0,79,0.00,,---,0.12,VWS V14.01,2013-03-30 00:25:00,
2013-03-29 20:29:00,43.5,37.4,30.15,ENE,68,0.0,0.0,79,0.00,,---,0.12,VWS V14.01,2013-03-30 00:29:00,
2013-03-29 20:30:00,43.5,37.4,30.15,ENE,68,0.0,0.0,79,0.00,,---,0.12,VWS V14.01,2013-03-30 00:30:00,
2013-03-29 20:34:00,43.5,37.4,30.15,ENE,68,0.0,0.0,79,0.00,,---,0.12,VWS V14.01,2013-03-30 00:34:00,
2013-03-29 20:35:00,43.6,37.5,30.15,ENE,68,0.0,0.0,79,0.00,,---,0.12,VWS V14.01,2013-03-30 00:35:00,
2013-03-29 20:36:00,43.6,37.5,30.15,ENE,68,0.0,0.0,79,0.00,,---,0.12,VWS V14.01,2013-03-30 00:36:00,
2013-03-29 20:39:00,43.6,37.8,30.15,ENE,68,0.0,0.0,80,0.00,,---,0.12,VWS V14.01,2013-03-30 00:39:00,
2013-03-29 20:40:00,43.6,37.8,30.15,ENE,68,0.0,0.0,80,0.00,,---,0.12,VWS V14.01,2013-03-30 00:40:00,
2013-03-29 20:43:00,43.5,37.8,30.15,ENE,68,0.0,0.0,80,0.00,,---,0.12,VWS V14.01,2013-03-30 00:43:00,
2013-03-29 20:45:00,43.5,37.8,30.15,ENE,68,0.0,0.0,80,0.00,,---,0.12,VWS V14.01,2013-03-30 00:45:00,
2013-03-29 20:46:00,43.8,38.0,30.15,NE,45,0.0,0.0,80,0.00,,---,0.12,VWS V14.01,2013-03-30 00:46:00,
2013-03-29 20:48:00,43.6,37.8,30.15,NE,45,0.0,0.0,80,0.00,,---,0.12,VWS V14.01,2013-03-30 00:48:00,
2013-03-29 20:50:00,43.5,37.8,30.15,NE,45,0.0,0.0,80,0.00,,---,0.12,VWS V14.01,2013-03-30 00:50:00,
2013-03-29 20:51:00,43.5,37.8,30.14,NE,45,0.0,0.0,80,0.00,,---,0.12,VWS V14.01,2013-03-30 00:51:00,
2013-03-29 20:53:00,43.5,37.8,30.15,NE,45,0.0,0.0,80,0.00,,---,0.12,VWS V14.01,2013-03-30 00:53:00,
2013-03-29 20:55:00,43.5,37.8,30.15,NE,45,0.0,0.0,80,0.00,,---,0.12,VWS V14.01,2013-03-30 00:55:00,
2013-03-29 20:57:00,43.5,37.8,30.15,NE,45,0.0,0.0,80,0.00,,---,0.12,VWS V14.01,2013-03-30 00:57:00,
2013-03-29 20:58:00,43.8,38.0,30.15,NE,45,0.0,0.0,80,0.00,,---,0.12,VWS V14.01,2013-03-30 00:58:00,
2013-03-29 21:00:00,43.8,38.0,30.15,NE,45,0.0,0.0,80,0.00,,---,0.12,VWS V14.01,2013-03-30 01:00:00,
2013-03-29 21:02:00,43.8,38.0,30.15,NE,45,0.0,0.0,80,0.00,,---,0.12,VWS V14.01,2013-03-30 01:02:00,
2013-03-29 21:03:00,43.8,38.0,30.15,NE,45,0.0,0.0,80,0.00,,---,0.12,VWS V14.01,2013-03-30 01:03:00,
2013-03-29 21:05:00,44.0,38.2,30.15,NE,45,0.0,0.0,80,0.00,,---,0.12,VWS V14.01,2013-03-30 01:05:00,
2013-03-29 21:07:00,43.8,38.0,30.15,NE,45,0.0,0.0,80,0.00,,---,0.12,VWS V14.01,2013-03-30 01:07:00,
2013-03-29 21:08:00,43.8,38.0,30.15,NE,45,0.0,0.0,80,0.00,,---,0.12,VWS V14.01,2013-03-30 01:08:00,
2013-03-29 21:10:00,43.8,38.0,30.15,NE,45,0.0,0.0,80,0.00,,---,0.12,VWS V14.01,2013-03-30 01:10:00,
2013-03-29 21:11:00,43.8,38.0,30.15,NE,45,0.0,0.0,80,0.00,,---,0.12,VWS V14.01,2013-03-30 01:11:00,
2013-03-29 21:13:00,43.8,38.0,30.15,NE,45,0.0,0.0,80,0.00,,---,0.12,VWS V14.01,2013-03-30 01:13:00,
2013-03-29 21:14:00,43.8,38.0,30.15,NE,45,0.0,0.0,80,0.00,,---,0.12,VWS V14.01,2013-03-30 01:14:00,
2013-03-29 21:16:00,43.8,38.0,30.14,NE,45,0.0,0.0,80,0.00,,---,0.12,VWS V14.01,2013-03-30 01:16:00,
2013-03-29 21:18:00,43.6,37.8,30.14,NE,45,0.0,0.0,80,0.00,,---,0.12,VWS V14.01,2013-03-30 01:18:00,
2013-03-29 21:19:00,43.6,37.8,30.14,NE,45,0.0,0.0,80,0.00,,---,0.12,VWS V14.01,2013-03-30 01:19:00,
2013-03-29 21:21:00,43.8,38.0,30.14,NE,45,0.0,0.0,80,0.00,,---,0.12,VWS V14.01,2013-03-30 01:21:00,
2013-03-29 21:22:00,43.8,38.0,30.14,NE,45,0.0,0.0,80,0.00,,---,0.12,VWS V14.01,2013-03-30 01:22:00,
2013-03-29 21:23:00,43.8,38.0,30.15,NE,45,0.0,0.0,80,0.00,,---,0.12,VWS V14.01,2013-03-30 01:23:00,
2013-03-29 21:24:00,43.8,38.0,30.15,NE,45,0.0,0.0,80,0.00,,---,0.12,VWS V14.01,2013-03-30 01:24:00,
2013-03-29 21:26:00,43.5,37.8,30.15,NE,45,0.0,0.0,80,0.00,,---,0.12,VWS V14.01,2013-03-30 01:26:00,
2013-03-29 21:27:00,43.5,37.8,30.15,NE,45,0.0,0.0,80,0.00,,---,0.12,VWS V14.01,2013-03-30 01:27:00,
2013-03-29 21:29:00,43.5,37.8,30.15,NE,45,0.0,0.0,80,0.00,,---,0.12,VWS V14.01,2013-03-30 01:29:00,
2013-03-29 21:31:00,43.8,38.0,30.15,NE,45,0.0,0.0,80,0.00,,---,0.12,VWS V14.01,2013-03-30 01:31:00,
2013-03-29 21:33:00,43.8,38.0,30.15,NE,45,0.0,0.0,80,0.00,,---,0.12,VWS V14.01,2013-03-30 01:33:00,
2013-03-29 21:34:00,43.8,38.0,30.15,NE,45,0.0,0.0,80,0.00,,---,0.12,VWS V14.01,2013-03-30 01:34:00,
2013-03-29 21:35:00,43.8,38.0,30.15,NE,45,0.0,0.0,80,0.00,,---,0.12,VWS V14.01,2013-03-30 01:35:00,
2013-03-29 21:37:00,43.6,37.8,30.15,NE,45,0.0,0.0,80,0.00,,---,0.12,VWS V14.01,2013-03-30 01:37:00,
2013-03-29 21:38:00,43.6,37.8,30.15,NE,45,0.0,0.0,80,0.00,,---,0.12,VWS V14.01,2013-03-30 01:38:00,
2013-03-29 21:40:00,43.6,37.8,30.15,NE,45,0.0,0.0,80,0.00,,---,0.12,VWS V14.01,2013-03-30 01:40:00,
2013-03-29 21:42:00,43.5,37.8,30.15,NE,45,0.0,0.0,80,0.00,,---,0.12,VWS V14.01,2013-03-30 01:42:00,
2013-03-29 21:43:00,43.5,37.8,30.15,NE,45,0.0,0.0,80,0.00,,---,0.12,VWS V14.01,2013-03-30 01:43:00,
2013-03-29 21:45:00,43.5,37.8,30.15,NE,45,0.0,0.0,80,0.00,,---,0.12,VWS V14.01,2013-03-30 01:45:00,
2013-03-29 21:47:00,43.5,37.8,30.15,NE,45,0.0,0.0,80,0.00,,---,0.12,VWS V14.01,2013-03-30 01:47:00,
2013-03-29 21:48:00,43.3,37.6,30.16,NE,45,0.0,0.0,80,0.00,,---,0.12,VWS V14.01,2013-03-30 01:48:00,
2013-03-29 21:51:00,43.5,37.8,30.15,NE,45,0.0,0.0,80,0.00,,---,0.12,VWS V14.01,2013-03-30 01:51:00,
2013-03-29 21:52:00,43.5,37.8,30.16,NE,45,0.0,0.0,80,0.00,,---,0.12,VWS V14.01,2013-03-30 01:52:00,
2013-03-29 21:53:00,43.5,37.8,30.16,NE,45,0.0,0.0,80,0.00,,---,0.12,VWS V14.01,2013-03-30 01:53:00,
2013-03-29 21:57:00,43.3,37.9,30.16,NE,45,0.0,0.0,81,0.02,,---,0.14,VWS V14.01,2013-03-30 01:57:00,
2013-03-29 21:58:00,43.5,38.1,30.16,NE,45,0.0,0.0,81,0.02,,---,0.14,VWS V14.01,2013-03-30 01:58:00,
2013-03-29 22:02:00,43.5,38.1,30.16,NE,45,0.0,0.0,81,0.02,,---,0.14,VWS V14.01,2013-03-30 02:02:00,
2013-03-29 22:03:00,43.5,38.1,30.16,NE,45,0.0,0.0,81,0.02,,---,0.14,VWS V14.01,2013-03-30 02:03:00,
2013-03-29 22:04:00,43.5,38.1,30.16,NE,45,0.0,0.0,81,0.02,,---,0.14,VWS V14.01,2013-03-30 02:04:00,
2013-03-29 22:07:00,43.6,38.2,30.15,NE,45,0.0,0.0,81,0.02,,---,0.14,VWS V14.01,2013-03-30 02:07:00,
2013-03-29 22:09:00,43.5,38.1,30.16,NE,45,0.0,0.0,81,0.02,,---,0.14,VWS V14.01,2013-03-30 02:09:00,
2013-03-29 22:12:00,43.5,38.1,30.16,NE,45,0.0,0.0,81,0.02,,---,0.14,VWS V14.01,2013-03-30 02:12:00,
2013-03-29 22:14:00,43.5,38.1,30.16,NE,45,0.0,0.0,81,0.02,,---,0.14,VWS V14.01,2013-03-30 02:14:00,
2013-03-29 22:15:00,43.5,38.1,30.16,NE,45,0.0,0.0,81,0.02,,---,0.14,VWS V14.01,2013-03-30 02:15:00,
2013-03-29 22:19:00,43.3,37.9,30.16,NE,45,0.0,0.0,81,0.02,,---,0.14,VWS V14.01,2013-03-30 02:19:00,
2013-03-29 22:20:00,43.5,38.1,30.16,NE,45,0.0,0.0,81,0.02,,---,0.14,VWS V14.01,2013-03-30 02:20:00,
2013-03-29 22:24:00,43.5,38.1,30.15,NE,45,0.0,0.0,81,0.02,,---,0.14,VWS V14.01,2013-03-30 02:24:00,
2013-03-29 22:25:00,43.5,38.1,30.15,NE,45,0.0,0.0,81,0.02,,---,0.14,VWS V14.01,2013-03-30 02:25:00,
2013-03-29 22:27:00,43.3,37.9,30.15,NE,45,0.0,0.0,81,0.02,,---,0.14,VWS V14.01,2013-03-30 02:27:00,
2013-03-29 22:29:00,43.1,37.7,30.15,NE,45,0.0,0.0,81,0.02,,---,0.14,VWS V14.01,2013-03-30 02:29:00,
2013-03-29 22:30:00,43.1,37.7,30.15,NE,45,0.0,0.0,81,0.02,,---,0.14,VWS V14.01,2013-03-30 02:30:00,
2013-03-29 22:31:00,43.1,37.7,30.15,NE,45,0.0,0.0,81,0.02,,---,0.14,VWS V14.01,2013-03-30 02:31:00,
2013-03-29 22:32:00,43.3,37.9,30.15,NE,45,0.0,0.0,81,0.02,,---,0.14,VWS V14.01,2013-03-30 02:32:00,
2013-03-29 22:34:00,43.3,37.9,30.16,NE,45,0.0,0.0,81,0.02,,---,0.14,VWS V14.01,2013-03-30 02:34:00,
2013-03-29 22:35:00,43.3,37.9,30.16,NE,45,0.0,0.0,81,0.02,,---,0.14,VWS V14.01,2013-03-30 02:35:00,
2013-03-29 22:36:00,43.3,38.2,30.16,NE,45,0.0,0.0,82,0.02,,---,0.14,VWS V14.01,2013-03-30 02:36:00,
2013-03-29 22:38:00,43.1,38.0,30.15,NE,45,0.0,0.0,82,0.02,,---,0.14,VWS V14.01,2013-03-30 02:38:00,
2013-03-29 22:40:00,43.1,38.0,30.15,NE,45,0.0,0.0,82,0.02,,---,0.14,VWS V14.01,2013-03-30 02:40:00,
2013-03-29 22:41:00,42.9,37.5,30.15,NE,45,0.0,0.0,81,0.02,,---,0.14,VWS V14.01,2013-03-30 02:41:00,
2013-03-29 22:43:00,42.9,37.5,30.15,NNE,22,0.0,0.0,81,0.02,,---,0.14,VWS V14.01,2013-03-30 02:43:00,
2013-03-29 22:45:00,42.7,37.3,30.15,NNE,22,0.0,0.0,81,0.02,,---,0.14,VWS V14.01,2013-03-30 02:45:00,
2013-03-29 22:47:00,42.7,37.6,30.15,NNE,22,0.0,0.0,82,0.02,,---,0.14,VWS V14.01,2013-03-30 02:47:00,
2013-03-29 22:49:00,42.7,37.6,30.15,NNE,22,0.0,0.0,82,0.02,,---,0.14,VWS V14.01,2013-03-30 02:49:00,
2013-03-29 22:50:00,42.7,37.6,30.15,NNE,22,0.0,0.0,82,0.02,,---,0.14,VWS V14.01,2013-03-30 02:50:00,
2013-03-29 22:53:00,42.7,37.6,30.15,NNE,22,0.0,0.0,82,0.02,,---,0.14,VWS V14.01,2013-03-30 02:53:00,
2013-03-29 22:54:00,42.9,37.8,30.15,NNE,22,0.0,0.0,82,0.02,,---,0.14,VWS V14.01,2013-03-30 02:54:00,
2013-03-29 22:55:00,42.9,37.8,30.15,NNE,22,0.0,0.0,82,0.02,,---,0.14,VWS V14.01,2013-03-30 02:55:00,
2013-03-29 22:56:00,42.9,37.8,30.15,NNE,22,0.0,0.0,82,0.02,,---,0.14,VWS V14.01,2013-03-30 02:56:00,
2013-03-29 22:58:00,42.9,37.8,30.15,North,0,0.0,0.0,82,0.00,,---,0.14,VWS V14.01,2013-03-30 02:58:00,
2013-03-29 22:59:00,43.1,38.0,30.15,North,0,0.0,0.0,82,0.00,,---,0.14,VWS V14.01,2013-03-30 02:59:00,
2013-03-29 23:01:00,43.1,38.0,30.15,North,0,0.0,0.0,82,0.00,,---,0.14,VWS V14.01,2013-03-30 03:01:00,
2013-03-29 23:03:00,43.1,38.0,30.15,North,0,0.0,0.0,82,0.00,,---,0.14,VWS V14.01,2013-03-30 03:03:00,
2013-03-29 23:04:00,43.1,38.0,30.16,North,0,0.0,0.0,82,0.02,,---,0.16,VWS V14.01,2013-03-30 03:04:00,
2013-03-29 23:06:00,43.3,38.5,30.16,North,0,0.0,0.0,83,0.02,,---,0.16,VWS V14.01,2013-03-30 03:06:00,
2013-03-29 23:07:00,43.3,38.5,30.16,North,0,0.0,0.0,83,0.02,,---,0.16,VWS V14.01,2013-03-30 03:07:00,
2013-03-29 23:08:00,42.9,37.8,30.16,North,0,0.0,0.0,82,0.02,,---,0.16,VWS V14.01,2013-03-30 03:08:00,
2013-03-29 23:09:00,42.9,37.8,30.15,North,0,0.0,0.0,82,0.02,,---,0.16,VWS V14.01,2013-03-30 03:09:00,
2013-03-29 23:11:00,42.9,37.8,30.15,North,0,0.0,0.0,82,0.02,,---,0.16,VWS V14.01,2013-03-30 03:11:00,
2013-03-29 23:12:00,42.9,37.8,30.15,North,0,0.0,0.0,82,0.02,,---,0.16,VWS V14.01,2013-03-30 03:12:00,
2013-03-29 23:13:00,42.9,37.8,30.15,North,0,0.0,0.0,82,0.02,,---,0.16,VWS V14.01,2013-03-30 03:13:00,
2013-03-29 23:15:00,42.9,37.8,30.15,North,0,0.0,0.0,82,0.02,,---,0.16,VWS V14.01,2013-03-30 03:15:00,
2013-03-29 23:17:00,42.9,37.8,30.15,North,0,0.0,0.0,82,0.02,,---,0.16,VWS V14.01,2013-03-30 03:17:00,
2013-03-29 23:19:00,42.9,37.8,30.15,North,0,0.0,0.0,82,0.02,,---,0.16,VWS V14.01,2013-03-30 03:19:00,
2013-03-29 23:20:00,42.9,37.8,30.15,North,0,0.0,0.0,82,0.02,,---,0.16,VWS V14.01,2013-03-30 03:20:00,
2013-03-29 23:22:00,42.9,38.1,30.15,North,0,0.0,0.0,83,0.02,,---,0.16,VWS V14.01,2013-03-30 03:22:00,
2013-03-29 23:23:00,42.9,38.1,30.15,North,0,0.0,0.0,83,0.02,,---,0.16,VWS V14.01,2013-03-30 03:23:00,
2013-03-29 23:24:00,42.9,38.1,30.15,North,0,0.0,0.0,83,0.02,,---,0.16,VWS V14.01,2013-03-30 03:24:00,
2013-03-29 23:25:00,42.9,38.1,30.15,North,0,0.0,0.0,83,0.02,,---,0.16,VWS V14.01,2013-03-30 03:25:00,
2013-03-29 23:27:00,42.9,38.1,30.15,North,0,0.0,0.0,83,0.02,,---,0.16,VWS V14.01,2013-03-30 03:27:00,
2013-03-29 23:29:00,42.9,38.1,30.16,North,0,0.0,0.0,83,0.02,,---,0.16,VWS V14.01,2013-03-30 03:29:00,
2013-03-29 23:30:00,42.9,38.1,30.16,North,0,0.0,0.0,83,0.02,,---,0.16,VWS V14.01,2013-03-30 03:30:00,
2013-03-29 23:33:00,42.7,37.6,30.15,NE,45,0.0,0.0,82,0.02,,---,0.16,VWS V14.01,2013-03-30 03:33:00,
2013-03-29 23:34:00,42.9,38.1,30.15,NE,45,0.0,0.0,83,0.02,,---,0.16,VWS V14.01,2013-03-30 03:34:00,
2013-03-29 23:35:00,42.9,38.1,30.15,NE,45,0.0,0.0,83,0.02,,---,0.16,VWS V14.01,2013-03-30 03:35:00,
2013-03-29 23:38:00,42.7,37.9,30.15,NE,45,0.0,0.0,83,0.02,,---,0.16,VWS V14.01,2013-03-30 03:38:00,
2013-03-29 23:40:00,42.9,38.1,30.16,NE,45,0.0,0.0,83,0.04,,---,0.19,VWS V14.01,2013-03-30 03:40:00,
2013-03-29 23:41:00,42.9,38.1,30.16,NE,45,0.0,0.0,83,0.04,,---,0.19,VWS V14.01,2013-03-30 03:41:00,
2013-03-29 23:43:00,42.9,38.1,30.16,NE,45,0.0,0.0,83,0.04,,---,0.19,VWS V14.01,2013-03-30 03:43:00,
2013-03-29 23:45:00,43.3,38.5,30.16,NE,45,0.0,0.0,83,0.04,,---,0.19,VWS V14.01,2013-03-30 03:45:00,
2013-03-29 23:46:00,43.3,38.5,30.16,NE,45,0.0,0.0,83,0.04,,---,0.19,VWS V14.01,2013-03-30 03:46:00,
2013-03-29 23:48:00,43.3,38.5,30.16,NE,45,0.0,0.0,83,0.04,,---,0.19,VWS V14.01,2013-03-30 03:48:00,
2013-03-29 23:50:00,43.3,38.5,30.16,NE,45,0.0,0.0,83,0.04,,---,0.19,VWS V14.01,2013-03-30 03:50:00,
2013-03-29 23:51:00,43.3,38.5,30.16,NE,45,0.0,0.0,83,0.04,,---,0.19,VWS V14.01,2013-03-30 03:51:00,
2013-03-29 23:53:00,43.3,38.5,30.16,NE,45,0.0,0.0,83,0.04,,---,0.19,VWS V14.01,2013-03-30 03:53:00,
2013-03-29 23:55:00,43.3,38.5,30.16,NE,45,0.0,0.0,83,0.06,,---,0.20,VWS V14.01,2013-03-30 03:55:00,
2013-03-29 23:56:00,43.3,38.5,30.16,NE,45,0.0,0.0,83,0.06,,---,0.20,VWS V14.01,2013-03-30 03:56:00,
2013-03-29 23:57:00,43.3,38.5,30.15,NE,45,0.0,0.0,83,0.06,,---,0.20,VWS V14.01,2013-03-30 03:57:00,
2013-03-29 23:58:00,43.3,38.5,30.15,NE,45,0.0,0.0,83,0.06,,---,0.20,VWS V14.01,2013-03-30 03:58:00,